UAE2K OMDB-KSFO
Flight info
| Callsign | UAE2K |
|---|---|
| Flight time | N/A |
| Altitude | 33000 |
| Route | IVURO1F IVURO M677 LALDO B505 PG G325 ZB/N0496F350 G325 PS P500 ATROL/N0492F340 P500 GERRY/N0492F350 P500 MOTMO/N0492F340 P500 FIRUZ/K0911F340 Z407 POMIR L139 ADESA/K0911F360 L139 MAGOL P178 TIMKA M168 BEDOR W332 EDETO M168 ARHIG T522 BEBLU N167 TINRI/K0906F370 L165 BELEG/K0904F360 L165 BURIB/K0911F380 L165 ABERI/N0493F380 DCT 85N125W/N0493F400 80N128W/N0496F390 75N128W 70N128W/N0496F410 65N127W 60N126W 55N125W DCT ELIDI/N0479F400 DCT KEINN/N0479F410 DCT NUTBE DCT VIXOR Q1 ELMAA DCT RBG STINS4 |
| Aircraft | A359/H-SDE2E3GHIJ3J4J5LM1ORWXY/LB1D1 |
Departure
| Time | N/A |
|---|---|
| Airport | Dubai International Airport (OMDB) |
Arrival
| Time | 2026-05-04 05:40 |
|---|---|
| Airport | San Francisco International Airport (KSFO) |
| Time | Latitude | Longitude | Altitude | Speed | Heading |
|---|---|---|---|---|---|
| 2026-05-03 20:15 | 66.42266 | 66.61364 | 37643 ft | 492 kts | 355° |
| 2026-05-03 20:15 | 66.49121 | 66.61130 | 37641 ft | 492 kts | 354° |
| 2026-05-03 20:16 | 66.55966 | 66.60895 | 37638 ft | 492 kts | 354° |
| 2026-05-03 20:16 | 66.62818 | 66.60778 | 37638 ft | 493 kts | 356° |
| 2026-05-03 20:17 | 66.69692 | 66.61162 | 37632 ft | 493 kts | 357° |
| 2026-05-03 20:17 | 66.76549 | 66.61619 | 37636 ft | 493 kts | 356° |
| 2026-05-03 20:18 | 66.83369 | 66.62005 | 37637 ft | 493 kts | 356° |
| 2026-05-03 20:18 | 66.90225 | 66.62352 | 37631 ft | 493 kts | 356° |
| 2026-05-03 20:19 | 66.97072 | 66.62690 | 37624 ft | 493 kts | 356° |
| 2026-05-03 20:19 | 67.03925 | 66.63032 | 37627 ft | 493 kts | 356° |
| 2026-05-03 20:20 | 67.10787 | 66.63327 | 37626 ft | 493 kts | 356° |
| 2026-05-03 20:20 | 67.17646 | 66.63540 | 37643 ft | 493 kts | 355° |
| 2026-05-03 20:21 | 67.24501 | 66.63755 | 37620 ft | 493 kts | 356° |
| 2026-05-03 20:21 | 67.31379 | 66.63990 | 37621 ft | 495 kts | 356° |
| 2026-05-03 20:22 | 67.38277 | 66.64485 | 37614 ft | 496 kts | 357° |
| 2026-05-03 20:22 | 67.45168 | 66.65175 | 37615 ft | 496 kts | 357° |
| 2026-05-03 20:23 | 67.52059 | 66.65839 | 37649 ft | 495 kts | 357° |
| 2026-05-03 20:23 | 67.58960 | 66.66468 | 37610 ft | 496 kts | 356° |
| 2026-05-03 20:24 | 67.65820 | 66.67080 | 37610 ft | 496 kts | 356° |
| 2026-05-03 20:24 | 67.72729 | 66.67701 | 37606 ft | 496 kts | 356° |
| 2026-05-03 20:25 | 67.79645 | 66.68325 | 37608 ft | 496 kts | 356° |
| 2026-05-03 20:25 | 67.86546 | 66.68954 | 37612 ft | 496 kts | 356° |
| 2026-05-03 20:26 | 67.93465 | 66.69560 | 37609 ft | 499 kts | 357° |
| 2026-05-03 20:26 | 68.00446 | 66.70169 | 37607 ft | 502 kts | 358° |
| 2026-05-03 20:27 | 68.07362 | 66.70791 | 37612 ft | 500 kts | 358° |
| 2026-05-03 20:27 | 68.14322 | 66.71421 | 37610 ft | 499 kts | 358° |
| 2026-05-03 20:28 | 68.21263 | 66.72050 | 37612 ft | 499 kts | 357° |
| 2026-05-03 20:28 | 68.28213 | 66.72681 | 37617 ft | 501 kts | 357° |
| 2026-05-03 20:29 | 68.35198 | 66.73316 | 37604 ft | 504 kts | 357° |
| 2026-05-03 20:29 | 68.42221 | 66.73964 | 37605 ft | 504 kts | 357° |
| 2026-05-03 20:30 | 68.49185 | 66.74610 | 37605 ft | 504 kts | 357° |
| 2026-05-03 20:30 | 68.56193 | 66.75289 | 37606 ft | 504 kts | 358° |
| 2026-05-03 20:31 | 68.63208 | 66.75988 | 37606 ft | 505 kts | 358° |
| 2026-05-03 20:31 | 68.70257 | 66.76688 | 37594 ft | 508 kts | 358° |
| 2026-05-03 20:32 | 68.77337 | 66.77392 | 37591 ft | 508 kts | 358° |
| 2026-05-03 20:32 | 68.84399 | 66.78101 | 37588 ft | 506 kts | 358° |
| 2026-05-03 20:33 | 68.91444 | 66.78714 | 37584 ft | 505 kts | 357° |
| 2026-05-03 20:33 | 68.98344 | 66.78991 | 37598 ft | 505 kts | 357° |
| 2026-05-03 20:34 | 69.05382 | 66.79240 | 37576 ft | 507 kts | 357° |
| 2026-05-03 20:34 | 69.12390 | 66.79542 | 37575 ft | 507 kts | 358° |
| 2026-05-03 20:35 | 69.19447 | 66.79879 | 37572 ft | 507 kts | 358° |
| 2026-05-03 20:35 | 69.26496 | 66.80223 | 37561 ft | 507 kts | 358° |
| 2026-05-03 20:36 | 69.33555 | 66.80568 | 37567 ft | 507 kts | 358° |
| 2026-05-03 20:36 | 69.40614 | 66.80912 | 37555 ft | 508 kts | 358° |
| 2026-05-03 20:37 | 69.47694 | 66.81260 | 37558 ft | 508 kts | 358° |
| 2026-05-03 20:37 | 69.54765 | 66.81611 | 37554 ft | 509 kts | 358° |
| 2026-05-03 20:38 | 69.61832 | 66.81961 | 37550 ft | 507 kts | 358° |
| 2026-05-03 20:38 | 69.68883 | 66.82316 | 37545 ft | 506 kts | 358° |
| 2026-05-03 20:39 | 69.75936 | 66.82671 | 37548 ft | 507 kts | 358° |
| 2026-05-03 20:39 | 69.82998 | 66.83030 | 37536 ft | 507 kts | 358° |
| 2026-05-03 20:40 | 69.90055 | 66.83391 | 37547 ft | 507 kts | 358° |
| 2026-05-03 20:40 | 69.97115 | 66.83756 | 37542 ft | 507 kts | 358° |
| 2026-05-03 20:41 | 70.04011 | 66.84114 | 37541 ft | 507 kts | 358° |
| 2026-05-03 20:41 | 70.11032 | 66.84481 | 37534 ft | 508 kts | 358° |
| 2026-05-03 20:42 | 70.18110 | 66.84849 | 37534 ft | 509 kts | 359° |
| 2026-05-03 20:42 | 70.25198 | 66.85227 | 37543 ft | 509 kts | 358° |
| 2026-05-03 20:43 | 70.32297 | 66.85608 | 37544 ft | 509 kts | 358° |
| 2026-05-03 20:43 | 70.39391 | 66.85986 | 37539 ft | 509 kts | 359° |
| 2026-05-03 20:44 | 70.46295 | 66.86359 | 37540 ft | 509 kts | 358° |
| 2026-05-03 20:44 | 70.53381 | 66.86747 | 37536 ft | 509 kts | 358° |
| 2026-05-03 20:45 | 70.60478 | 66.87134 | 37546 ft | 509 kts | 359° |
| 2026-05-03 20:45 | 70.67553 | 66.87525 | 37548 ft | 509 kts | 359° |
| 2026-05-03 20:46 | 70.74646 | 66.87921 | 37548 ft | 509 kts | 358° |
| 2026-05-03 20:46 | 70.81688 | 66.88314 | 37573 ft | 509 kts | 359° |
| 2026-05-03 20:47 | 70.88784 | 66.88714 | 37542 ft | 510 kts | 358° |
| 2026-05-03 20:47 | 70.95905 | 66.89118 | 37541 ft | 511 kts | 358° |
| 2026-05-03 20:48 | 71.03028 | 66.89527 | 37542 ft | 512 kts | 358° |
| 2026-05-03 20:48 | 71.10150 | 66.89931 | 37540 ft | 511 kts | 358° |
| 2026-05-03 20:49 | 71.17264 | 66.90348 | 37541 ft | 511 kts | 358° |
| 2026-05-03 20:49 | 71.24289 | 66.90686 | 37553 ft | 512 kts | 357° |
| 2026-05-03 20:50 | 71.31396 | 66.90056 | 37553 ft | 511 kts | 355° |
| 2026-05-03 20:50 | 71.38508 | 66.89100 | 37553 ft | 511 kts | 355° |
| 2026-05-03 20:51 | 71.45418 | 66.88283 | 37553 ft | 511 kts | 356° |
| 2026-05-03 20:51 | 71.52346 | 66.87565 | 37553 ft | 512 kts | 356° |
| 2026-05-03 20:52 | 71.59406 | 66.86861 | 37557 ft | 512 kts | 355° |
| 2026-05-03 20:52 | 71.66547 | 66.86135 | 37572 ft | 513 kts | 356° |
| 2026-05-03 20:53 | 71.73668 | 66.85408 | 37573 ft | 512 kts | 356° |
| 2026-05-03 20:53 | 71.80807 | 66.84680 | 37573 ft | 513 kts | 355° |
| 2026-05-03 20:54 | 71.87301 | 66.84005 | 37574 ft | 514 kts | 355° |
| 2026-05-03 20:54 | 71.97791 | 66.82898 | 37573 ft | 514 kts | 355° |
| 2026-05-03 20:55 | 72.04937 | 66.82137 | 37592 ft | 513 kts | 356° |
| 2026-05-03 20:55 | 72.12078 | 66.81376 | 37591 ft | 513 kts | 356° |
| 2026-05-03 20:56 | 72.19215 | 66.80599 | 37592 ft | 512 kts | 356° |
| 2026-05-03 20:56 | 72.26348 | 66.79832 | 37590 ft | 513 kts | 356° |
| 2026-05-03 20:57 | 72.33344 | 66.79052 | 37598 ft | 513 kts | 356° |
| 2026-05-03 20:57 | 72.39545 | 66.78357 | 37609 ft | 511 kts | 356° |
| 2026-05-03 20:58 | 72.45809 | 66.77669 | 37614 ft | 511 kts | 356° |
| 2026-05-03 20:58 | 72.52886 | 66.76889 | 37615 ft | 512 kts | 356° |
| 2026-05-03 20:59 | 72.60009 | 66.76072 | 37613 ft | 511 kts | 356° |
| 2026-05-03 20:59 | 72.67111 | 66.75276 | 37615 ft | 511 kts | 355° |
| 2026-05-03 21:00 | 72.71880 | 66.74727 | 37614 ft | 513 kts | 356° |
| 2026-05-03 21:00 | 72.81396 | 66.73606 | 37629 ft | 512 kts | 356° |
| 2026-05-03 21:01 | 72.88525 | 66.72774 | 37626 ft | 511 kts | 356° |
| 2026-05-03 21:01 | 72.95603 | 66.71955 | 37628 ft | 513 kts | 356° |
| 2026-05-03 21:02 | 73.01684 | 66.71242 | 37629 ft | 513 kts | 356° |
| 2026-05-03 21:02 | 73.08129 | 66.70475 | 37633 ft | 514 kts | 356° |
| 2026-05-03 21:03 | 73.15320 | 66.69604 | 37638 ft | 515 kts | 356° |
| 2026-05-03 21:03 | 73.21273 | 66.68877 | 37645 ft | 515 kts | 356° |
| 2026-05-03 21:04 | 73.28428 | 66.67990 | 37640 ft | 512 kts | 356° |
| 2026-05-03 21:04 | 73.35552 | 66.67114 | 37645 ft | 511 kts | 357° |
| 2026-05-03 21:05 | 73.42665 | 66.66244 | 37657 ft | 512 kts | 356° |
| 2026-05-03 21:05 | 73.49804 | 66.65353 | 37645 ft | 514 kts | 356° |
| 2026-05-03 21:06 | 73.56842 | 66.64460 | 37663 ft | 514 kts | 357° |
| 2026-05-03 21:06 | 73.62864 | 66.63677 | 37658 ft | 511 kts | 357° |
| 2026-05-03 21:07 | 73.68470 | 66.62966 | 37665 ft | 510 kts | 357° |
| 2026-05-03 21:07 | 73.74736 | 66.62168 | 37665 ft | 510 kts | 357° |
| 2026-05-03 21:08 | 73.81808 | 66.61252 | 37671 ft | 511 kts | 357° |
| 2026-05-03 21:08 | 73.88928 | 66.60313 | 37660 ft | 512 kts | 357° |
| 2026-05-03 21:09 | 73.96051 | 66.59383 | 37676 ft | 513 kts | 356° |
| 2026-05-03 21:09 | 74.03205 | 66.58423 | 37675 ft | 515 kts | 356° |
| 2026-05-03 21:10 | 74.10355 | 66.57437 | 37681 ft | 512 kts | 357° |
| 2026-05-03 21:10 | 74.16952 | 66.56549 | 37672 ft | 511 kts | 356° |
| 2026-05-03 21:11 | 74.22739 | 66.55780 | 37680 ft | 513 kts | 356° |
| 2026-05-03 21:11 | 74.29062 | 66.54901 | 37692 ft | 515 kts | 356° |
| 2026-05-03 21:12 | 74.35449 | 66.53995 | 37692 ft | 512 kts | 357° |
| 2026-05-03 21:12 | 74.42155 | 66.53068 | 37695 ft | 512 kts | 356° |
| 2026-05-03 21:13 | 74.49137 | 66.52085 | 37694 ft | 515 kts | 356° |
| 2026-05-03 21:13 | 74.56295 | 66.51057 | 37717 ft | 515 kts | 356° |
| 2026-05-03 21:14 | 74.63429 | 66.50013 | 37712 ft | 510 kts | 357° |
| 2026-05-03 21:14 | 74.70522 | 66.48999 | 37699 ft | 510 kts | 356° |
| 2026-05-03 21:15 | 74.77635 | 66.47969 | 37708 ft | 512 kts | 356° |
| 2026-05-03 21:15 | 74.84668 | 66.46913 | 37709 ft | 513 kts | 357° |
| 2026-05-03 21:16 | 74.90764 | 66.46008 | 37727 ft | 511 kts | 356° |
| 2026-05-03 21:16 | 74.97334 | 66.45017 | 37722 ft | 511 kts | 357° |
| 2026-05-03 21:17 | 75.02576 | 66.44223 | 37713 ft | 509 kts | 357° |
| 2026-05-03 21:17 | 75.10529 | 66.43012 | 37723 ft | 508 kts | 357° |
| 2026-05-03 21:18 | 75.17587 | 66.41925 | 37721 ft | 508 kts | 357° |
| 2026-05-03 21:18 | 75.24667 | 66.40834 | 37722 ft | 511 kts | 356° |
| 2026-05-03 21:19 | 75.31781 | 66.39704 | 37722 ft | 511 kts | 356° |
| 2026-05-03 21:19 | 75.38898 | 66.38573 | 37733 ft | 512 kts | 357° |
| 2026-05-03 21:20 | 75.46009 | 66.37427 | 37739 ft | 510 kts | 357° |
| 2026-05-03 21:20 | 75.53096 | 66.36287 | 37749 ft | 510 kts | 357° |
| 2026-05-03 21:21 | 75.59609 | 66.35224 | 37742 ft | 509 kts | 357° |
| 2026-05-03 21:21 | 75.65367 | 66.34285 | 37755 ft | 512 kts | 357° |
| 2026-05-03 21:22 | 75.72024 | 66.33174 | 37757 ft | 513 kts | 357° |
| 2026-05-03 21:22 | 75.79138 | 66.31977 | 37766 ft | 512 kts | 357° |
| 2026-05-03 21:23 | 75.86258 | 66.30771 | 37771 ft | 512 kts | 357° |
| 2026-05-03 21:23 | 75.93361 | 66.29554 | 37768 ft | 510 kts | 357° |
| 2026-05-03 21:24 | 76.00469 | 66.28331 | 37775 ft | 511 kts | 357° |
| 2026-05-03 21:24 | 76.07514 | 66.27099 | 37774 ft | 508 kts | 357° |
| 2026-05-03 21:25 | 76.14569 | 66.25859 | 37768 ft | 506 kts | 357° |
| 2026-05-03 21:25 | 76.21631 | 66.24607 | 37781 ft | 508 kts | 357° |
| 2026-05-03 21:26 | 76.28693 | 66.23336 | 37774 ft | 508 kts | 357° |
| 2026-05-03 21:26 | 76.35752 | 66.22047 | 37771 ft | 506 kts | 357° |
| 2026-05-03 21:27 | 76.42796 | 66.20761 | 37766 ft | 506 kts | 357° |
| 2026-05-03 21:27 | 76.49804 | 66.19460 | 37773 ft | 507 kts | 357° |
| 2026-05-03 21:28 | 76.56848 | 66.18141 | 37768 ft | 505 kts | 357° |
| 2026-05-03 21:28 | 76.63871 | 66.16814 | 37780 ft | 505 kts | 357° |
| 2026-05-03 21:29 | 76.70888 | 66.15474 | 37774 ft | 505 kts | 357° |
| 2026-05-03 21:29 | 76.77919 | 66.14119 | 37779 ft | 507 kts | 357° |
| 2026-05-03 21:30 | 76.83899 | 66.12952 | 37780 ft | 507 kts | 357° |
| 2026-05-03 21:30 | 76.90954 | 66.11562 | 37778 ft | 507 kts | 357° |
| 2026-05-03 21:31 | 76.98011 | 66.10172 | 37789 ft | 506 kts | 357° |
| 2026-05-03 21:31 | 77.05038 | 66.08803 | 37810 ft | 506 kts | 358° |
| 2026-05-03 21:32 | 77.12080 | 66.07419 | 37813 ft | 507 kts | 358° |
| 2026-05-03 21:32 | 77.19086 | 66.06023 | 37819 ft | 507 kts | 358° |
| 2026-05-03 21:33 | 77.26145 | 66.04597 | 37811 ft | 508 kts | 358° |
| 2026-05-03 21:33 | 77.32905 | 66.03215 | 37806 ft | 508 kts | 358° |
| 2026-05-03 21:34 | 77.39783 | 66.01798 | 37822 ft | 508 kts | 358° |
| 2026-05-03 21:34 | 77.46599 | 66.00380 | 37833 ft | 508 kts | 358° |
| 2026-05-03 21:35 | 77.53662 | 65.97275 | 37840 ft | 506 kts | 353° |
| 2026-05-03 21:35 | 77.60598 | 65.93104 | 37845 ft | 506 kts | 353° |
| 2026-05-03 21:36 | 77.67585 | 65.88679 | 37852 ft | 507 kts | 353° |
| 2026-05-03 21:36 | 77.74569 | 65.84172 | 37849 ft | 508 kts | 353° |
| 2026-05-03 21:37 | 77.81493 | 65.79662 | 37850 ft | 508 kts | 353° |
| 2026-05-03 21:37 | 77.88452 | 65.75087 | 37850 ft | 508 kts | 353° |
| 2026-05-03 21:38 | 77.95453 | 65.70434 | 37875 ft | 508 kts | 353° |
| 2026-05-03 21:38 | 78.02460 | 65.65725 | 37872 ft | 508 kts | 353° |
| 2026-05-03 21:39 | 78.09465 | 65.60962 | 37868 ft | 508 kts | 353° |
| 2026-05-03 21:39 | 78.16092 | 65.56404 | 37880 ft | 508 kts | 353° |
| 2026-05-03 21:40 | 78.22023 | 65.52280 | 37877 ft | 508 kts | 353° |
| 2026-05-03 21:40 | 78.28861 | 65.47473 | 37887 ft | 508 kts | 353° |
| 2026-05-03 21:41 | 78.35770 | 65.42552 | 37891 ft | 506 kts | 352° |
| 2026-05-03 21:41 | 78.42739 | 65.37543 | 37901 ft | 506 kts | 352° |
| 2026-05-03 21:42 | 78.49712 | 65.32476 | 37905 ft | 506 kts | 353° |
| 2026-05-03 21:42 | 78.56689 | 65.27342 | 37909 ft | 507 kts | 353° |
| 2026-05-03 21:43 | 78.62651 | 65.22881 | 37908 ft | 507 kts | 352° |
| 2026-05-03 21:43 | 78.69294 | 65.17864 | 37899 ft | 505 kts | 352° |
| 2026-05-03 21:44 | 78.75936 | 65.12811 | 37923 ft | 505 kts | 353° |
| 2026-05-03 21:44 | 78.82520 | 65.07733 | 37916 ft | 506 kts | 352° |
| 2026-05-03 21:45 | 78.88696 | 65.02900 | 37917 ft | 505 kts | 353° |
| 2026-05-03 21:45 | 78.95115 | 64.97874 | 37946 ft | 506 kts | 353° |
| 2026-05-03 21:46 | 79.02089 | 64.92295 | 37963 ft | 507 kts | 353° |
| 2026-05-03 21:46 | 79.08294 | 64.87252 | 37962 ft | 506 kts | 353° |
| 2026-05-03 21:47 | 79.15230 | 64.81586 | 37959 ft | 507 kts | 353° |
| 2026-05-03 21:47 | 79.22152 | 64.75842 | 37963 ft | 507 kts | 352° |
| 2026-05-03 21:48 | 79.29104 | 64.69967 | 37963 ft | 505 kts | 352° |
| 2026-05-03 21:48 | 79.35835 | 64.64259 | 37972 ft | 504 kts | 352° |
| 2026-05-03 21:49 | 79.42243 | 64.58760 | 37972 ft | 504 kts | 352° |
| 2026-05-03 21:49 | 79.49026 | 64.52861 | 37991 ft | 504 kts | 352° |
| 2026-05-03 21:50 | 79.55962 | 64.46731 | 37990 ft | 505 kts | 352° |
| 2026-05-03 21:50 | 79.62152 | 64.41188 | 38002 ft | 504 kts | 352° |
| 2026-05-03 21:51 | 79.67913 | 64.35975 | 37999 ft | 504 kts | 352° |
| 2026-05-03 21:51 | 79.74598 | 64.29855 | 37999 ft | 505 kts | 352° |
| 2026-05-03 21:52 | 79.81533 | 64.23440 | 38013 ft | 505 kts | 353° |
| 2026-05-03 21:52 | 79.88481 | 64.16897 | 38013 ft | 506 kts | 352° |
| 2026-05-03 21:53 | 79.95421 | 64.10235 | 38016 ft | 504 kts | 352° |
| 2026-05-03 21:53 | 80.01148 | 64.04707 | 38032 ft | 503 kts | 352° |
| 2026-05-03 21:54 | 80.07825 | 63.98190 | 38039 ft | 503 kts | 352° |
| 2026-05-03 21:54 | 80.13166 | 63.92946 | 38040 ft | 504 kts | 353° |
| 2026-05-03 21:55 | 80.20033 | 63.86063 | 38039 ft | 505 kts | 353° |
| 2026-05-03 21:55 | 80.26729 | 63.79209 | 38048 ft | 505 kts | 353° |
| 2026-05-03 21:56 | 80.33641 | 63.72096 | 38051 ft | 505 kts | 353° |
| 2026-05-03 21:56 | 80.40562 | 63.64819 | 38061 ft | 504 kts | 352° |
| 2026-05-03 21:57 | 80.47476 | 63.57482 | 38060 ft | 503 kts | 352° |
| 2026-05-03 21:57 | 80.54372 | 63.50078 | 38075 ft | 504 kts | 351° |
| 2026-05-03 21:58 | 80.61263 | 63.42536 | 38072 ft | 503 kts | 351° |
| 2026-05-03 21:58 | 80.68020 | 63.35088 | 38076 ft | 503 kts | 353° |
| 2026-05-03 21:59 | 80.74917 | 63.27335 | 38080 ft | 503 kts | 352° |
| 2026-05-03 21:59 | 80.81806 | 63.19438 | 38081 ft | 502 kts | 351° |
| 2026-05-03 22:00 | 80.88624 | 63.11501 | 38094 ft | 502 kts | 352° |
| 2026-05-03 22:00 | 80.94928 | 63.04119 | 38094 ft | 502 kts | 352° |
| 2026-05-03 22:01 | 81.01648 | 62.96100 | 38105 ft | 502 kts | 352° |
| 2026-05-03 22:01 | 81.08462 | 62.87828 | 38100 ft | 502 kts | 352° |
| 2026-05-03 22:02 | 81.15338 | 62.79360 | 38116 ft | 503 kts | 352° |
| 2026-05-03 22:02 | 81.22206 | 62.70772 | 38116 ft | 503 kts | 352° |
| 2026-05-03 22:03 | 81.29086 | 62.62034 | 38116 ft | 503 kts | 352° |
| 2026-05-03 22:03 | 81.35591 | 62.53634 | 38118 ft | 503 kts | 352° |
| 2026-05-03 22:04 | 81.42271 | 62.44873 | 38119 ft | 503 kts | 352° |
| 2026-05-03 22:04 | 81.49129 | 62.35671 | 38125 ft | 502 kts | 351° |
| 2026-05-03 22:05 | 81.55982 | 62.26465 | 38127 ft | 501 kts | 352° |
| 2026-05-03 22:05 | 81.62823 | 62.17077 | 38127 ft | 502 kts | 350° |
| 2026-05-03 22:06 | 81.69664 | 62.07449 | 38129 ft | 501 kts | 350° |
| 2026-05-03 22:06 | 81.76503 | 61.97830 | 38132 ft | 501 kts | 351° |
| 2026-05-03 22:07 | 81.82321 | 61.89357 | 38135 ft | 502 kts | 350° |
| 2026-05-03 22:07 | 81.88891 | 61.79753 | 38135 ft | 502 kts | 351° |
| 2026-05-03 22:08 | 81.95716 | 61.68913 | 38141 ft | 503 kts | 348° |
| 2026-05-03 22:08 | 82.02519 | 61.56695 | 38139 ft | 503 kts | 348° |
| 2026-05-03 22:09 | 82.09315 | 61.44287 | 38153 ft | 502 kts | 347° |
| 2026-05-03 22:10 | 82.19338 | 61.25957 | 38151 ft | 502 kts | 347° |
| 2026-05-03 22:10 | 82.25369 | 61.14767 | 38165 ft | 501 kts | 348° |
| 2026-05-03 22:11 | 82.32096 | 61.02075 | 38165 ft | 501 kts | 348° |
| 2026-05-03 22:11 | 82.38811 | 60.89167 | 38170 ft | 502 kts | 347° |
| 2026-05-03 22:12 | 82.45529 | 60.76001 | 38168 ft | 501 kts | 348° |
| 2026-05-03 22:12 | 82.52286 | 60.62519 | 38170 ft | 502 kts | 348° |
| 2026-05-03 22:13 | 82.58269 | 60.50360 | 38162 ft | 502 kts | 347° |
| 2026-05-03 22:13 | 82.64465 | 60.37546 | 38184 ft | 501 kts | 347° |
| 2026-05-03 22:14 | 82.70945 | 60.23930 | 38194 ft | 500 kts | 347° |
| 2026-05-03 22:14 | 82.77667 | 60.09708 | 38194 ft | 501 kts | 348° |
| 2026-05-03 22:15 | 82.84450 | 59.96811 | 38199 ft | 500 kts | 349° |
| 2026-05-03 22:15 | 82.91231 | 59.84202 | 38200 ft | 500 kts | 349° |
| 2026-05-03 22:16 | 82.98010 | 59.71119 | 38194 ft | 500 kts | 349° |
| 2026-05-03 22:16 | 83.04649 | 59.57861 | 38204 ft | 499 kts | 348° |
| 2026-05-03 22:17 | 83.11358 | 59.44152 | 38210 ft | 499 kts | 348° |
| 2026-05-03 22:17 | 83.18100 | 59.30125 | 38221 ft | 499 kts | 348° |
| 2026-05-03 22:18 | 83.24188 | 59.17235 | 38221 ft | 499 kts | 348° |
| 2026-05-03 22:18 | 83.30926 | 59.02671 | 38228 ft | 500 kts | 348° |
| 2026-05-03 22:19 | 83.37664 | 58.87773 | 38224 ft | 500 kts | 348° |
| 2026-05-03 22:19 | 83.44343 | 58.72702 | 38233 ft | 498 kts | 348° |
| 2026-05-03 22:20 | 83.51040 | 58.57226 | 38225 ft | 497 kts | 347° |
| 2026-05-03 22:20 | 83.57738 | 58.41453 | 38246 ft | 497 kts | 347° |
| 2026-05-03 22:21 | 83.64065 | 58.26321 | 38260 ft | 497 kts | 347° |
| 2026-05-03 22:21 | 83.70759 | 58.09889 | 38240 ft | 498 kts | 346° |
| 2026-05-03 22:22 | 83.77445 | 57.93175 | 38257 ft | 497 kts | 347° |
| 2026-05-03 22:22 | 83.84115 | 57.76112 | 38260 ft | 497 kts | 347° |
| 2026-05-03 22:23 | 83.90776 | 57.58566 | 38261 ft | 497 kts | 347° |
| 2026-05-03 22:23 | 83.97397 | 57.40832 | 38265 ft | 497 kts | 347° |
| 2026-05-03 22:24 | 84.04055 | 57.22511 | 38269 ft | 497 kts | 346° |
| 2026-05-03 22:24 | 84.10699 | 57.03796 | 38258 ft | 497 kts | 346° |
| 2026-05-03 22:25 | 84.17356 | 56.84761 | 38287 ft | 498 kts | 346° |
| 2026-05-03 22:25 | 84.23993 | 56.65231 | 38288 ft | 498 kts | 345° |
| 2026-05-03 22:26 | 84.30631 | 56.45173 | 38289 ft | 498 kts | 345° |
| 2026-05-03 22:26 | 84.37253 | 56.24708 | 38290 ft | 498 kts | 345° |
| 2026-05-03 22:27 | 84.43874 | 56.03744 | 38291 ft | 498 kts | 345° |
| 2026-05-03 22:27 | 84.50489 | 55.82278 | 38296 ft | 498 kts | 344° |
| 2026-05-03 22:28 | 84.57055 | 55.60431 | 38301 ft | 498 kts | 344° |
| 2026-05-03 22:28 | 84.63665 | 55.37869 | 38306 ft | 498 kts | 344° |
| 2026-05-03 22:29 | 84.70249 | 55.14801 | 38315 ft | 497 kts | 343° |
| 2026-05-03 22:29 | 84.76776 | 54.91340 | 38314 ft | 497 kts | 344° |
| 2026-05-03 22:30 | 84.83344 | 54.67132 | 38324 ft | 497 kts | 343° |
| 2026-05-03 22:30 | 84.89907 | 54.42210 | 38321 ft | 497 kts | 343° |
| 2026-05-03 22:31 | 84.96448 | 54.16726 | 38325 ft | 497 kts | 343° |
| 2026-05-03 22:31 | 85.02989 | 53.90588 | 38325 ft | 498 kts | 343° |
| 2026-05-03 22:32 | 85.09521 | 53.63588 | 38335 ft | 498 kts | 342° |
| 2026-05-03 22:32 | 85.16037 | 53.36019 | 38343 ft | 498 kts | 342° |
| 2026-05-03 22:33 | 85.22502 | 53.07816 | 38344 ft | 498 kts | 341° |
| 2026-05-03 22:33 | 85.28994 | 52.78737 | 38347 ft | 498 kts | 341° |
| 2026-05-03 22:34 | 85.35485 | 52.48798 | 38353 ft | 498 kts | 341° |
| 2026-05-03 22:34 | 85.41957 | 52.17916 | 38346 ft | 498 kts | 340° |
| 2026-05-03 22:35 | 85.48426 | 51.86259 | 38351 ft | 498 kts | 341° |
| 2026-05-03 22:35 | 85.54882 | 51.53621 | 38349 ft | 499 kts | 340° |
| 2026-05-03 22:36 | 85.61288 | 51.20154 | 38353 ft | 499 kts | 340° |
| 2026-05-03 22:36 | 85.67717 | 50.85502 | 38369 ft | 499 kts | 340° |
| 2026-05-03 22:37 | 85.74140 | 50.49765 | 38367 ft | 499 kts | 339° |
| 2026-05-03 22:37 | 85.80542 | 50.12966 | 38372 ft | 499 kts | 339° |
| 2026-05-03 22:38 | 85.86923 | 49.75056 | 38361 ft | 499 kts | 339° |
| 2026-05-03 22:38 | 85.93244 | 49.36212 | 38380 ft | 499 kts | 338° |
| 2026-05-03 22:39 | 85.99582 | 48.95924 | 38380 ft | 499 kts | 338° |
| 2026-05-03 22:39 | 86.05905 | 48.54328 | 38383 ft | 499 kts | 337° |
| 2026-05-03 22:40 | 86.12199 | 48.11367 | 38392 ft | 499 kts | 336° |
| 2026-05-03 22:40 | 86.17454 | 47.74329 | 38376 ft | 499 kts | 336° |
| 2026-05-03 22:41 | 86.23713 | 47.28716 | 38386 ft | 499 kts | 335° |
| 2026-05-03 22:41 | 86.29909 | 46.81939 | 38397 ft | 499 kts | 336° |
| 2026-05-03 22:42 | 86.36125 | 46.33165 | 38392 ft | 500 kts | 334° |
| 2026-05-03 22:42 | 86.42314 | 45.82580 | 38400 ft | 500 kts | 334° |
| 2026-05-03 22:43 | 86.48475 | 45.30260 | 38398 ft | 500 kts | 333° |
| 2026-05-03 22:43 | 86.54605 | 44.76081 | 38406 ft | 499 kts | 333° |
| 2026-05-03 22:44 | 86.60669 | 44.20380 | 38409 ft | 499 kts | 332° |
| 2026-05-03 22:44 | 86.66732 | 43.62364 | 38411 ft | 500 kts | 332° |
| 2026-05-03 22:45 | 86.72762 | 43.02105 | 38417 ft | 500 kts | 331° |
| 2026-05-03 22:45 | 86.78747 | 42.39645 | 38417 ft | 500 kts | 330° |
| 2026-05-03 22:46 | 86.84701 | 41.74766 | 38428 ft | 500 kts | 330° |
| 2026-05-03 22:46 | 86.90578 | 41.07818 | 38421 ft | 500 kts | 329° |
| 2026-05-03 22:47 | 86.96445 | 40.37912 | 38424 ft | 500 kts | 329° |
| 2026-05-03 22:47 | 87.02280 | 39.65050 | 38416 ft | 501 kts | 328° |
| 2026-05-03 22:48 | 87.08056 | 38.89371 | 38430 ft | 500 kts | 327° |
| 2026-05-03 22:48 | 87.13733 | 38.11265 | 38438 ft | 499 kts | 326° |
| 2026-05-03 22:49 | 87.19384 | 37.29680 | 38436 ft | 499 kts | 326° |
| 2026-05-03 22:49 | 87.24995 | 36.44519 | 38436 ft | 500 kts | 325° |
| 2026-05-03 22:50 | 87.30534 | 35.55927 | 38439 ft | 500 kts | 324° |
| 2026-05-03 22:50 | 87.36013 | 34.63510 | 38443 ft | 501 kts | 323° |
| 2026-05-03 22:51 | 87.41408 | 33.67431 | 38444 ft | 500 kts | 322° |
| 2026-05-03 22:51 | 87.46760 | 32.68095 | 38439 ft | 498 kts | 326° |
| 2026-05-03 22:52 | 87.52802 | 31.95495 | 38454 ft | 492 kts | 343° |
| 2026-05-03 22:52 | 87.59307 | 31.44324 | 38451 ft | 493 kts | 343° |
| 2026-05-03 22:53 | 87.65858 | 30.94001 | 38457 ft | 494 kts | 344° |
| 2026-05-03 22:53 | 87.72441 | 30.44198 | 38462 ft | 493 kts | 344° |
| 2026-05-03 22:54 | 87.78961 | 29.92924 | 38462 ft | 492 kts | 344° |
| 2026-05-03 22:54 | 87.85481 | 29.38394 | 38463 ft | 492 kts | 343° |
| 2026-05-03 22:55 | 87.91986 | 28.80232 | 38473 ft | 492 kts | 342° |
| 2026-05-03 22:55 | 87.98469 | 28.18131 | 38473 ft | 492 kts | 342° |
| 2026-05-03 22:56 | 88.04924 | 27.51893 | 38476 ft | 492 kts | 341° |
| 2026-05-03 22:56 | 88.11359 | 26.81236 | 38476 ft | 492 kts | 341° |
| 2026-05-03 22:57 | 88.17723 | 26.06036 | 38481 ft | 493 kts | 340° |
| 2026-05-03 22:57 | 88.24114 | 25.24528 | 38480 ft | 493 kts | 339° |
| 2026-05-03 22:58 | 88.30427 | 24.37600 | 38484 ft | 491 kts | 338° |
| 2026-05-03 22:58 | 88.36697 | 23.44030 | 38490 ft | 491 kts | 337° |
| 2026-05-03 22:59 | 88.42880 | 22.43678 | 38492 ft | 491 kts | 336° |
| 2026-05-03 22:59 | 88.49054 | 21.34334 | 38493 ft | 491 kts | 335° |
| 2026-05-03 23:00 | 88.55157 | 20.16013 | 38498 ft | 491 kts | 334° |
| 2026-05-03 23:00 | 88.61201 | 18.87279 | 38505 ft | 491 kts | 332° |
| 2026-05-03 23:01 | 88.67180 | 17.46537 | 38507 ft | 492 kts | 331° |
| 2026-05-03 23:01 | 88.73071 | 15.92758 | 38508 ft | 491 kts | 329° |
| 2026-05-03 23:02 | 88.78842 | 14.24803 | 38507 ft | 489 kts | 327° |
| 2026-05-03 23:02 | 88.84499 | 12.40319 | 38508 ft | 490 kts | 326° |
| 2026-05-03 23:03 | 88.89985 | 10.38737 | 38508 ft | 491 kts | 323° |
| 2026-05-03 23:03 | 88.95364 | 8.14392 | 38515 ft | 490 kts | 321° |
| 2026-05-03 23:04 | 89.00558 | 5.66729 | 38516 ft | 489 kts | 319° |
| 2026-05-03 23:04 | 89.05547 | 2.92520 | 38517 ft | 490 kts | 316° |
| 2026-05-03 23:05 | 89.10304 | -0.11748 | 38523 ft | 491 kts | 313° |
| 2026-05-03 23:05 | 89.14785 | -3.49038 | 38524 ft | 490 kts | 309° |
| 2026-05-03 23:06 | 89.18916 | -7.19885 | 38521 ft | 490 kts | 306° |
| 2026-05-03 23:06 | 89.22693 | -11.30749 | 38534 ft | 491 kts | 301° |
| 2026-05-03 23:07 | 89.26037 | -15.81598 | 38533 ft | 490 kts | 297° |
| 2026-05-03 23:07 | 89.28875 | -20.70403 | 38525 ft | 489 kts | 292° |
| 2026-05-03 23:08 | 89.31154 | -25.95605 | 38529 ft | 489 kts | 287° |
| 2026-05-03 23:08 | 89.32814 | -31.50601 | 38538 ft | 489 kts | 282° |
| 2026-05-03 23:09 | 89.33813 | -37.28834 | 38541 ft | 489 kts | 276° |
| 2026-05-03 23:09 | 89.34115 | -43.19174 | 38535 ft | 491 kts | 270° |
| 2026-05-03 23:10 | 89.33710 | -49.06207 | 38545 ft | 491 kts | 264° |
| 2026-05-03 23:10 | 89.32600 | -54.84362 | 38544 ft | 492 kts | 258° |
| 2026-05-03 23:11 | 89.30818 | -60.38773 | 38545 ft | 493 kts | 253° |
| 2026-05-03 23:11 | 89.28408 | -65.61557 | 38549 ft | 493 kts | 248° |
| 2026-05-03 23:12 | 89.25433 | -70.46955 | 38554 ft | 494 kts | 243° |
| 2026-05-03 23:12 | 89.21959 | -74.92241 | 38548 ft | 494 kts | 238° |
| 2026-05-03 23:13 | 89.18048 | -78.97733 | 38549 ft | 494 kts | 234° |
| 2026-05-03 23:13 | 89.13803 | -82.61464 | 38553 ft | 493 kts | 230° |
| 2026-05-03 23:14 | 89.09209 | -85.92379 | 38554 ft | 494 kts | 227° |
| 2026-05-03 23:14 | 89.04344 | -88.90599 | 38553 ft | 494 kts | 224° |
| 2026-05-03 23:15 | 88.99250 | -91.59287 | 38554 ft | 492 kts | 221° |
| 2026-05-03 23:15 | 88.93983 | -94.00668 | 38555 ft | 491 kts | 219° |
| 2026-05-03 23:16 | 88.88550 | -96.18821 | 38555 ft | 491 kts | 217° |
| 2026-05-03 23:16 | 88.83003 | -98.15526 | 38560 ft | 491 kts | 214° |
| 2026-05-03 23:17 | 88.77286 | -99.95818 | 38563 ft | 492 kts | 213° |
| 2026-05-03 23:17 | 88.71457 | -101.60053 | 38562 ft | 492 kts | 211° |
| 2026-05-03 23:18 | 88.65528 | -103.10110 | 38563 ft | 493 kts | 210° |
| 2026-05-03 23:18 | 88.59503 | -104.47702 | 38565 ft | 493 kts | 208° |
| 2026-05-03 23:19 | 88.53460 | -105.72886 | 38565 ft | 492 kts | 207° |
| 2026-05-03 23:19 | 88.47323 | -106.88660 | 38566 ft | 491 kts | 206° |
| 2026-05-03 23:20 | 88.41101 | -107.95942 | 38570 ft | 491 kts | 205° |
| 2026-05-03 23:20 | 88.34907 | -108.93968 | 38568 ft | 491 kts | 204° |
| 2026-05-03 23:21 | 88.28615 | -109.85651 | 38570 ft | 492 kts | 203° |
| 2026-05-03 23:21 | 88.22288 | -110.70788 | 38573 ft | 492 kts | 202° |
| 2026-05-03 23:22 | 88.12723 | -111.87769 | 38573 ft | 492 kts | 201° |
| 2026-05-03 23:22 | 88.06299 | -112.59409 | 38573 ft | 492 kts | 200° |
| 2026-05-03 23:23 | 87.99854 | -113.26408 | 38578 ft | 491 kts | 199° |
| 2026-05-03 23:23 | 87.93388 | -113.89182 | 38578 ft | 491 kts | 199° |
| 2026-05-03 23:24 | 87.86952 | -114.47693 | 38579 ft | 491 kts | 198° |
| 2026-05-03 23:24 | 87.80445 | -115.03176 | 38581 ft | 491 kts | 198° |
| 2026-05-03 23:25 | 87.73912 | -115.55529 | 38581 ft | 491 kts | 197° |
| 2026-05-03 23:25 | 87.67360 | -116.04951 | 38581 ft | 491 kts | 197° |
| 2026-05-03 23:26 | 87.60800 | -116.51614 | 38581 ft | 491 kts | 196° |
| 2026-05-03 23:26 | 87.54226 | -116.95782 | 38587 ft | 491 kts | 195° |
| 2026-05-03 23:27 | 87.48745 | -117.30775 | 38584 ft | 491 kts | 195° |
| 2026-05-03 23:27 | 87.41062 | -117.77251 | 38584 ft | 490 kts | 194° |
| 2026-05-03 23:28 | 87.35569 | -118.08769 | 38589 ft | 491 kts | 194° |
| 2026-05-03 23:28 | 87.28941 | -118.45045 | 38589 ft | 491 kts | 194° |
| 2026-05-03 23:29 | 87.22314 | -118.79538 | 38589 ft | 491 kts | 193° |
| 2026-05-03 23:29 | 87.15675 | -119.12436 | 38595 ft | 491 kts | 193° |
| 2026-05-03 23:30 | 87.09069 | -119.43641 | 38595 ft | 491 kts | 193° |
| 2026-05-03 23:30 | 87.02417 | -119.73628 | 38594 ft | 491 kts | 193° |
| 2026-05-03 23:31 | 86.95742 | -120.02374 | 38595 ft | 491 kts | 192° |
| 2026-05-03 23:31 | 86.89073 | -120.29832 | 38597 ft | 491 kts | 192° |
| 2026-05-03 23:32 | 86.82398 | -120.56139 | 38597 ft | 491 kts | 192° |
| 2026-05-03 23:32 | 86.75703 | -120.81407 | 38599 ft | 491 kts | 192° |
| 2026-05-03 23:33 | 86.69009 | -121.05633 | 38599 ft | 491 kts | 191° |
| 2026-05-03 23:33 | 86.62305 | -121.28918 | 38599 ft | 491 kts | 191° |
| 2026-05-03 23:34 | 86.55636 | -121.51163 | 38597 ft | 491 kts | 191° |
| 2026-05-03 23:34 | 86.48917 | -121.72706 | 38602 ft | 491 kts | 191° |
| 2026-05-03 23:35 | 86.42189 | -121.93454 | 38603 ft | 491 kts | 190° |
| 2026-05-03 23:35 | 86.35515 | -122.13272 | 38603 ft | 492 kts | 190° |
| 2026-05-03 23:36 | 86.28774 | -122.32550 | 38605 ft | 492 kts | 190° |
| 2026-05-03 23:36 | 86.22029 | -122.51142 | 38605 ft | 492 kts | 189° |
| 2026-05-03 23:37 | 86.15279 | -122.69087 | 38603 ft | 492 kts | 189° |
| 2026-05-03 23:37 | 86.08523 | -122.86418 | 38602 ft | 492 kts | 189° |
| 2026-05-03 23:38 | 86.01758 | -123.03178 | 38608 ft | 492 kts | 189° |
| 2026-05-03 23:38 | 85.95000 | -123.19355 | 38605 ft | 492 kts | 189° |
| 2026-05-03 23:39 | 85.88274 | -123.34921 | 38605 ft | 492 kts | 189° |
| 2026-05-03 23:39 | 85.81496 | -123.50097 | 38607 ft | 493 kts | 188° |
| 2026-05-03 23:40 | 85.74712 | -123.64797 | 38603 ft | 493 kts | 188° |
| 2026-05-03 23:40 | 85.67928 | -123.79030 | 38603 ft | 493 kts | 188° |
| 2026-05-03 23:41 | 85.61145 | -123.92817 | 38604 ft | 493 kts | 188° |
| 2026-05-03 23:41 | 85.54391 | -124.06123 | 38603 ft | 493 kts | 188° |
| 2026-05-03 23:42 | 85.47606 | -124.19089 | 38602 ft | 493 kts | 188° |
| 2026-05-03 23:42 | 85.40801 | -124.31703 | 38602 ft | 493 kts | 188° |
| 2026-05-03 23:43 | 85.34010 | -124.43924 | 38601 ft | 494 kts | 188° |
| 2026-05-03 23:43 | 85.27205 | -124.55814 | 38604 ft | 494 kts | 187° |
| 2026-05-03 23:44 | 85.20382 | -124.67393 | 38602 ft | 494 kts | 187° |
| 2026-05-03 23:44 | 85.13613 | -124.78558 | 38605 ft | 494 kts | 187° |
| 2026-05-03 23:45 | 85.06749 | -124.89565 | 38602 ft | 494 kts | 187° |
| 2026-05-03 23:45 | 85.00045 | -125.00021 | 38894 ft | 494 kts | 187° |
| 2026-05-03 23:46 | 84.96641 | -125.04933 | 39124 ft | 493 kts | 186° |
| 2026-05-03 23:46 | 84.93233 | -125.09062 | 39294 ft | 493 kts | 185° |
| 2026-05-03 23:46 | 84.89816 | -125.12804 | 39413 ft | 493 kts | 185° |
| 2026-05-03 23:46 | 84.86397 | -125.16422 | 39524 ft | 493 kts | 185° |
| 2026-05-03 23:47 | 84.82980 | -125.20037 | 39634 ft | 493 kts | 185° |
| 2026-05-03 23:47 | 84.79566 | -125.23683 | 39753 ft | 493 kts | 185° |
| 2026-05-03 23:47 | 84.76154 | -125.27354 | 39859 ft | 493 kts | 185° |
| 2026-05-03 23:47 | 84.72731 | -125.31039 | 39962 ft | 493 kts | 185° |
| 2026-05-03 23:48 | 84.65900 | -125.38316 | 40134 ft | 494 kts | 185° |
| 2026-05-03 23:48 | 84.59050 | -125.45443 | 40332 ft | 494 kts | 185° |
| 2026-05-03 23:49 | 84.52198 | -125.52381 | 40515 ft | 494 kts | 185° |
| 2026-05-03 23:49 | 84.45373 | -125.59114 | 40602 ft | 496 kts | 185° |
| 2026-05-03 23:50 | 84.39662 | -125.64621 | 40603 ft | 496 kts | 185° |
| 2026-05-03 23:50 | 84.31630 | -125.72180 | 40603 ft | 496 kts | 185° |
| 2026-05-03 23:51 | 84.24743 | -125.78491 | 40602 ft | 496 kts | 185° |
| 2026-05-03 23:51 | 84.17869 | -125.84643 | 40602 ft | 496 kts | 185° |
| 2026-05-03 23:52 | 84.10989 | -125.90656 | 40602 ft | 496 kts | 185° |
| 2026-05-03 23:52 | 84.04158 | -125.96488 | 40602 ft | 496 kts | 185° |
| 2026-05-03 23:53 | 83.97275 | -126.02232 | 40600 ft | 496 kts | 184° |
| 2026-05-03 23:53 | 83.90389 | -126.07849 | 40600 ft | 496 kts | 184° |
| 2026-05-03 23:54 | 83.83507 | -126.13337 | 40603 ft | 496 kts | 184° |
| 2026-05-03 23:54 | 83.76661 | -126.18676 | 40602 ft | 496 kts | 184° |
| 2026-05-03 23:55 | 83.69766 | -126.23936 | 40602 ft | 496 kts | 184° |
| 2026-05-03 23:55 | 83.62878 | -126.29077 | 40603 ft | 496 kts | 184° |
| 2026-05-03 23:56 | 83.55994 | -126.34105 | 40601 ft | 496 kts | 184° |
| 2026-05-03 23:56 | 83.49103 | -126.39032 | 40603 ft | 497 kts | 184° |
| 2026-05-03 23:57 | 83.42213 | -126.43855 | 40602 ft | 497 kts | 184° |
| 2026-05-03 23:57 | 83.35318 | -126.48583 | 40604 ft | 497 kts | 184° |
| 2026-05-03 23:58 | 83.28457 | -126.53190 | 40601 ft | 497 kts | 184° |
| 2026-05-03 23:58 | 83.21548 | -126.57735 | 40603 ft | 497 kts | 184° |
| 2026-05-03 23:59 | 83.14653 | -126.62180 | 40600 ft | 497 kts | 184° |
| 2026-05-03 23:59 | 83.07752 | -126.66540 | 40597 ft | 497 kts | 184° |
| 2026-05-04 00:00 | 83.00855 | -126.70813 | 40602 ft | 497 kts | 184° |
| 2026-05-04 00:00 | 82.93947 | -126.75008 | 40603 ft | 497 kts | 184° |
| 2026-05-04 00:01 | 82.87086 | -126.79095 | 40604 ft | 497 kts | 184° |
| 2026-05-04 00:01 | 82.80181 | -126.83130 | 40602 ft | 497 kts | 184° |
| 2026-05-04 00:02 | 82.73268 | -126.87092 | 40594 ft | 497 kts | 184° |
| 2026-05-04 00:02 | 82.66363 | -126.90976 | 40596 ft | 497 kts | 184° |
| 2026-05-04 00:03 | 82.59453 | -126.94790 | 40593 ft | 497 kts | 184° |
| 2026-05-04 00:03 | 82.52594 | -126.98506 | 40594 ft | 497 kts | 183° |
| 2026-05-04 00:04 | 82.45689 | -127.02179 | 40591 ft | 497 kts | 183° |
| 2026-05-04 00:04 | 82.38781 | -127.05788 | 40592 ft | 498 kts | 183° |
| 2026-05-04 00:05 | 82.31863 | -127.09336 | 40589 ft | 498 kts | 183° |
| 2026-05-04 00:05 | 82.24942 | -127.12824 | 40588 ft | 498 kts | 183° |
| 2026-05-04 00:06 | 82.18019 | -127.16251 | 40587 ft | 498 kts | 183° |
| 2026-05-04 00:06 | 82.11100 | -127.19616 | 40586 ft | 498 kts | 183° |
| 2026-05-04 00:07 | 82.04178 | -127.22924 | 40589 ft | 498 kts | 183° |
| 2026-05-04 00:07 | 81.97304 | -127.26153 | 40586 ft | 498 kts | 183° |
| 2026-05-04 00:08 | 81.90377 | -127.29352 | 40586 ft | 498 kts | 183° |
| 2026-05-04 00:08 | 81.83444 | -127.32497 | 40586 ft | 499 kts | 183° |
| 2026-05-04 00:09 | 81.76519 | -127.35588 | 40580 ft | 500 kts | 183° |
| 2026-05-04 00:09 | 81.69568 | -127.38640 | 40581 ft | 500 kts | 183° |
| 2026-05-04 00:10 | 81.62616 | -127.41642 | 40584 ft | 500 kts | 183° |
| 2026-05-04 00:10 | 81.56212 | -127.44364 | 40583 ft | 500 kts | 183° |
| 2026-05-04 00:11 | 81.50379 | -127.46806 | 40579 ft | 500 kts | 183° |
| 2026-05-04 00:11 | 81.43427 | -127.49674 | 40578 ft | 500 kts | 183° |
| 2026-05-04 00:12 | 81.36469 | -127.52500 | 40579 ft | 500 kts | 183° |
| 2026-05-04 00:12 | 81.29511 | -127.55279 | 40578 ft | 501 kts | 183° |
| 2026-05-04 00:13 | 81.22542 | -127.58018 | 40575 ft | 501 kts | 183° |
| 2026-05-04 00:13 | 81.15621 | -127.60698 | 40576 ft | 502 kts | 183° |
| 2026-05-04 00:14 | 81.08648 | -127.63356 | 40573 ft | 502 kts | 183° |
| 2026-05-04 00:14 | 81.01676 | -127.65973 | 40573 ft | 502 kts | 183° |
| 2026-05-04 00:15 | 80.94705 | -127.68549 | 40573 ft | 502 kts | 183° |
| 2026-05-04 00:15 | 80.88911 | -127.70658 | 40574 ft | 502 kts | 183° |
| 2026-05-04 00:16 | 80.81943 | -127.73161 | 40570 ft | 502 kts | 183° |
| 2026-05-04 00:16 | 80.74968 | -127.75631 | 40570 ft | 502 kts | 183° |
| 2026-05-04 00:17 | 80.67983 | -127.78066 | 40567 ft | 502 kts | 183° |
| 2026-05-04 00:17 | 80.60997 | -127.80467 | 40567 ft | 502 kts | 183° |
| 2026-05-04 00:18 | 80.54056 | -127.82817 | 40567 ft | 502 kts | 183° |
| 2026-05-04 00:18 | 80.47068 | -127.85149 | 40568 ft | 502 kts | 183° |
| 2026-05-04 00:19 | 80.40085 | -127.87443 | 40570 ft | 502 kts | 183° |
| 2026-05-04 00:19 | 80.33093 | -127.89706 | 40562 ft | 503 kts | 183° |
| 2026-05-04 00:20 | 80.26157 | -127.91924 | 40559 ft | 503 kts | 183° |
| 2026-05-04 00:20 | 80.19163 | -127.94128 | 40559 ft | 502 kts | 183° |
| 2026-05-04 00:21 | 80.12188 | -127.96294 | 40558 ft | 503 kts | 183° |
| 2026-05-04 00:21 | 80.05187 | -127.98438 | 40559 ft | 503 kts | 183° |
| 2026-05-04 00:22 | 79.98203 | -128.00503 | 40558 ft | 503 kts | 182° |
| 2026-05-04 00:22 | 79.91199 | -128.00809 | 40553 ft | 503 kts | 179° |
| 2026-05-04 00:23 | 79.84197 | -128.00311 | 40557 ft | 503 kts | 179° |
| 2026-05-04 00:23 | 79.77238 | -128.00028 | 40554 ft | 503 kts | 180° |
| 2026-05-04 00:24 | 79.70233 | -127.99965 | 40554 ft | 503 kts | 180° |
| 2026-05-04 00:24 | 79.63233 | -127.99979 | 40546 ft | 503 kts | 180° |
| 2026-05-04 00:25 | 79.56227 | -127.99995 | 40542 ft | 503 kts | 180° |
| 2026-05-04 00:25 | 79.49225 | -128.00004 | 40546 ft | 503 kts | 180° |
| 2026-05-04 00:26 | 79.42224 | -128.00002 | 40537 ft | 503 kts | 180° |
| 2026-05-04 00:26 | 79.35215 | -127.99998 | 40537 ft | 503 kts | 180° |
| 2026-05-04 00:27 | 79.28251 | -128.00000 | 40538 ft | 504 kts | 180° |
| 2026-05-04 00:27 | 79.21231 | -128.00002 | 40538 ft | 504 kts | 180° |
| 2026-05-04 00:28 | 79.14216 | -128.00002 | 40530 ft | 504 kts | 180° |
| 2026-05-04 00:28 | 79.07245 | -128.00000 | 40528 ft | 504 kts | 180° |
| 2026-05-04 00:29 | 79.00234 | -128.00000 | 40528 ft | 503 kts | 180° |
| 2026-05-04 00:29 | 78.93989 | -128.00001 | 40523 ft | 504 kts | 180° |
| 2026-05-04 00:30 | 78.86970 | -128.00002 | 40519 ft | 504 kts | 181° |
| 2026-05-04 00:30 | 78.79944 | -127.99999 | 40519 ft | 504 kts | 181° |
| 2026-05-04 00:31 | 78.72925 | -127.99998 | 40513 ft | 504 kts | 181° |
| 2026-05-04 00:31 | 78.65946 | -128.00001 | 40513 ft | 504 kts | 181° |
| 2026-05-04 00:32 | 78.58927 | -128.00000 | 40514 ft | 504 kts | 181° |
| 2026-05-04 00:32 | 78.51901 | -127.99999 | 40502 ft | 504 kts | 181° |
| 2026-05-04 00:33 | 78.41360 | -127.99999 | 40500 ft | 505 kts | 181° |
| 2026-05-04 00:34 | 78.34340 | -128.00002 | 40500 ft | 505 kts | 181° |
| 2026-05-04 00:34 | 78.27359 | -128.00001 | 40498 ft | 505 kts | 181° |
| 2026-05-04 00:35 | 78.20325 | -128.00000 | 40490 ft | 505 kts | 181° |
| 2026-05-04 00:35 | 78.13298 | -128.00000 | 40484 ft | 505 kts | 181° |
| 2026-05-04 00:36 | 78.06271 | -128.00000 | 40485 ft | 505 kts | 181° |
| 2026-05-04 00:36 | 77.99237 | -127.99999 | 40484 ft | 505 kts | 181° |
| 2026-05-04 00:37 | 77.92209 | -127.99998 | 40479 ft | 505 kts | 181° |
| 2026-05-04 00:37 | 77.85219 | -127.99999 | 40481 ft | 505 kts | 181° |
| 2026-05-04 00:38 | 77.78187 | -128.00001 | 40466 ft | 505 kts | 181° |
| 2026-05-04 00:38 | 77.71151 | -127.99999 | 40468 ft | 505 kts | 181° |
| 2026-05-04 00:39 | 77.64116 | -127.99998 | 40470 ft | 505 kts | 181° |
| 2026-05-04 00:39 | 77.57087 | -127.99999 | 40460 ft | 505 kts | 181° |
| 2026-05-04 00:40 | 77.50055 | -128.00001 | 40450 ft | 505 kts | 181° |
| 2026-05-04 00:40 | 77.43022 | -128.00001 | 40452 ft | 505 kts | 181° |
| 2026-05-04 00:41 | 77.36028 | -128.00000 | 40456 ft | 505 kts | 181° |
| 2026-05-04 00:41 | 77.28991 | -128.00000 | 40446 ft | 505 kts | 181° |
| 2026-05-04 00:42 | 77.21946 | -128.00001 | 40443 ft | 505 kts | 181° |
| 2026-05-04 00:42 | 77.14908 | -128.00000 | 40442 ft | 505 kts | 181° |
| 2026-05-04 00:43 | 77.07872 | -127.99999 | 40442 ft | 505 kts | 181° |
| 2026-05-04 00:43 | 77.00890 | -128.00000 | 40430 ft | 505 kts | 181° |
| 2026-05-04 00:44 | 76.93865 | -128.00000 | 40433 ft | 505 kts | 181° |
| 2026-05-04 00:44 | 76.86839 | -128.00000 | 40433 ft | 505 kts | 181° |
| 2026-05-04 00:45 | 76.79813 | -128.00000 | 40418 ft | 505 kts | 181° |
| 2026-05-04 00:45 | 76.73135 | -128.00000 | 40417 ft | 505 kts | 181° |
| 2026-05-04 00:46 | 76.67163 | -128.00001 | 40408 ft | 505 kts | 181° |
| 2026-05-04 00:46 | 76.60137 | -128.00000 | 40414 ft | 504 kts | 181° |
| 2026-05-04 00:47 | 76.53161 | -127.99998 | 40403 ft | 504 kts | 181° |
| 2026-05-04 00:47 | 76.46139 | -127.99997 | 40401 ft | 504 kts | 181° |
| 2026-05-04 00:48 | 76.39122 | -128.00000 | 40400 ft | 504 kts | 181° |
| 2026-05-04 00:48 | 76.32096 | -128.00003 | 40390 ft | 504 kts | 181° |
| 2026-05-04 00:49 | 76.25075 | -127.99995 | 40387 ft | 504 kts | 181° |
| 2026-05-04 00:49 | 76.18053 | -127.99999 | 40386 ft | 504 kts | 181° |
| 2026-05-04 00:50 | 76.11079 | -128.00009 | 40371 ft | 504 kts | 182° |
| 2026-05-04 00:50 | 76.04048 | -128.00016 | 40370 ft | 505 kts | 182° |
| 2026-05-04 00:51 | 75.97014 | -128.00004 | 40369 ft | 505 kts | 181° |
| 2026-05-04 00:51 | 75.89990 | -127.99995 | 40364 ft | 504 kts | 181° |
| 2026-05-04 00:52 | 75.82981 | -127.99999 | 40357 ft | 504 kts | 182° |
| 2026-05-04 00:52 | 75.75965 | -128.00007 | 40357 ft | 504 kts | 181° |
| 2026-05-04 00:53 | 75.68941 | -128.00013 | 40349 ft | 504 kts | 181° |
| 2026-05-04 00:53 | 75.62217 | -128.00001 | 40341 ft | 505 kts | 181° |
| 2026-05-04 00:54 | 75.55625 | -127.99989 | 40343 ft | 505 kts | 181° |
| 2026-05-04 00:54 | 75.48605 | -128.00001 | 40343 ft | 504 kts | 181° |
| 2026-05-04 00:55 | 75.41582 | -127.99992 | 40320 ft | 504 kts | 182° |
| 2026-05-04 00:55 | 75.34566 | -127.99992 | 40326 ft | 504 kts | 182° |
| 2026-05-04 00:56 | 75.27564 | -128.00000 | 40321 ft | 503 kts | 182° |
| 2026-05-04 00:56 | 75.20557 | -128.00011 | 40319 ft | 503 kts | 182° |
| 2026-05-04 00:57 | 75.13559 | -128.00008 | 40301 ft | 503 kts | 182° |
| 2026-05-04 00:57 | 75.06542 | -128.00000 | 40303 ft | 503 kts | 182° |
| 2026-05-04 00:58 | 74.99540 | -128.00003 | 40292 ft | 503 kts | 182° |
| 2026-05-04 00:58 | 74.92579 | -128.00015 | 40290 ft | 503 kts | 181° |
| 2026-05-04 00:59 | 74.85575 | -128.00008 | 40288 ft | 503 kts | 182° |
| 2026-05-04 00:59 | 74.78572 | -127.99998 | 40293 ft | 503 kts | 182° |
| 2026-05-04 01:00 | 74.71566 | -127.99998 | 40277 ft | 503 kts | 181° |
| 2026-05-04 01:00 | 74.64560 | -128.00003 | 40265 ft | 503 kts | 182° |
| 2026-05-04 01:01 | 74.57968 | -127.99999 | 40272 ft | 503 kts | 181° |
| 2026-05-04 01:01 | 74.51011 | -127.99994 | 40269 ft | 503 kts | 181° |
| 2026-05-04 01:02 | 74.44013 | -127.99995 | 40257 ft | 503 kts | 181° |
| 2026-05-04 01:02 | 74.37013 | -128.00002 | 40251 ft | 503 kts | 181° |
| 2026-05-04 01:03 | 74.30007 | -128.00001 | 40247 ft | 503 kts | 182° |
| 2026-05-04 01:03 | 74.23005 | -127.99997 | 40240 ft | 503 kts | 182° |
| 2026-05-04 01:04 | 74.16017 | -127.99998 | 40241 ft | 502 kts | 181° |
| 2026-05-04 01:04 | 74.09012 | -128.00003 | 40235 ft | 502 kts | 182° |
| 2026-05-04 01:05 | 74.02060 | -128.00003 | 40221 ft | 502 kts | 182° |
| 2026-05-04 01:05 | 73.95068 | -127.99994 | 40219 ft | 502 kts | 182° |
| 2026-05-04 01:06 | 73.89265 | -127.99992 | 40221 ft | 502 kts | 182° |
| 2026-05-04 01:06 | 73.82269 | -127.99998 | 40221 ft | 502 kts | 182° |
| 2026-05-04 01:07 | 73.75278 | -128.00005 | 40204 ft | 502 kts | 182° |
| 2026-05-04 01:07 | 73.68286 | -128.00000 | 40201 ft | 502 kts | 182° |
| 2026-05-04 01:08 | 73.61294 | -127.99993 | 40205 ft | 501 kts | 182° |
| 2026-05-04 01:08 | 73.54314 | -127.99998 | 40193 ft | 501 kts | 182° |
| 2026-05-04 01:09 | 73.47698 | -127.99999 | 40188 ft | 502 kts | 182° |
| 2026-05-04 01:09 | 73.41112 | -127.99999 | 40186 ft | 502 kts | 182° |
| 2026-05-04 01:10 | 73.34122 | -127.99998 | 40179 ft | 502 kts | 182° |
| 2026-05-04 01:10 | 73.27141 | -127.99998 | 40179 ft | 502 kts | 182° |
| 2026-05-04 01:11 | 73.20152 | -128.00001 | 40171 ft | 502 kts | 182° |
| 2026-05-04 01:11 | 73.13170 | -128.00000 | 40148 ft | 502 kts | 182° |
| 2026-05-04 01:12 | 73.06192 | -127.99997 | 40161 ft | 501 kts | 181° |
| 2026-05-04 01:12 | 72.99221 | -127.99997 | 40155 ft | 501 kts | 182° |
| 2026-05-04 01:13 | 72.92249 | -128.00004 | 40158 ft | 501 kts | 182° |
| 2026-05-04 01:13 | 72.85270 | -128.00003 | 40141 ft | 501 kts | 182° |
| 2026-05-04 01:14 | 72.78454 | -128.00001 | 40136 ft | 501 kts | 182° |
| 2026-05-04 01:14 | 72.71803 | -128.00000 | 40140 ft | 501 kts | 182° |
| 2026-05-04 01:15 | 72.64825 | -128.00000 | 40129 ft | 501 kts | 182° |
| 2026-05-04 01:15 | 72.57847 | -128.00003 | 40127 ft | 501 kts | 182° |
| 2026-05-04 01:16 | 72.50859 | -127.99999 | 40124 ft | 501 kts | 181° |
| 2026-05-04 01:16 | 72.43913 | -127.99997 | 40114 ft | 501 kts | 182° |
| 2026-05-04 01:17 | 72.36930 | -128.00000 | 40118 ft | 501 kts | 181° |
| 2026-05-04 01:17 | 72.29955 | -128.00001 | 40114 ft | 501 kts | 182° |
| 2026-05-04 01:18 | 72.22978 | -128.00000 | 40104 ft | 501 kts | 182° |
| 2026-05-04 01:18 | 72.16005 | -128.00002 | 40110 ft | 501 kts | 182° |
| 2026-05-04 01:19 | 72.09023 | -128.00002 | 40114 ft | 501 kts | 182° |
| 2026-05-04 01:19 | 72.02040 | -128.00002 | 40115 ft | 502 kts | 182° |
| 2026-05-04 01:20 | 71.95063 | -127.99995 | 40097 ft | 501 kts | 182° |
| 2026-05-04 01:20 | 71.88558 | -127.99997 | 40098 ft | 501 kts | 182° |
| 2026-05-04 01:21 | 71.81634 | -127.99999 | 40095 ft | 501 kts | 182° |
| 2026-05-04 01:21 | 71.74657 | -128.00009 | 40091 ft | 501 kts | 182° |
| 2026-05-04 01:22 | 71.67662 | -127.99996 | 40088 ft | 501 kts | 182° |
| 2026-05-04 01:22 | 71.60685 | -127.99986 | 40082 ft | 502 kts | 182° |
| 2026-05-04 01:23 | 71.53704 | -127.99994 | 40076 ft | 502 kts | 182° |
| 2026-05-04 01:23 | 71.46721 | -128.00001 | 40070 ft | 501 kts | 182° |
| 2026-05-04 01:24 | 71.39737 | -128.00004 | 40065 ft | 501 kts | 183° |
| 2026-05-04 01:24 | 71.32813 | -128.00002 | 40057 ft | 500 kts | 182° |
| 2026-05-04 01:25 | 71.25847 | -127.99986 | 40050 ft | 500 kts | 183° |
| 2026-05-04 01:25 | 71.18888 | -127.99984 | 40055 ft | 500 kts | 182° |
| 2026-05-04 01:26 | 71.11921 | -127.99993 | 40051 ft | 500 kts | 182° |
| 2026-05-04 01:26 | 71.05222 | -127.99988 | 40041 ft | 500 kts | 182° |
| 2026-05-04 01:27 | 70.98255 | -127.99986 | 40042 ft | 500 kts | 182° |
| 2026-05-04 01:27 | 70.91291 | -128.00007 | 40035 ft | 500 kts | 182° |
| 2026-05-04 01:28 | 70.84334 | -128.00007 | 40023 ft | 500 kts | 182° |
| 2026-05-04 01:28 | 70.77372 | -127.99997 | 40021 ft | 499 kts | 182° |
| 2026-05-04 01:29 | 70.70468 | -127.99995 | 40019 ft | 499 kts | 182° |
| 2026-05-04 01:29 | 70.63513 | -127.99999 | 40012 ft | 499 kts | 182° |
| 2026-05-04 01:30 | 70.56566 | -128.00000 | 40010 ft | 499 kts | 182° |
| 2026-05-04 01:30 | 70.49608 | -127.99997 | 40010 ft | 499 kts | 182° |
| 2026-05-04 01:31 | 70.42667 | -127.99996 | 39991 ft | 499 kts | 182° |
| 2026-05-04 01:31 | 70.35713 | -128.00000 | 39996 ft | 499 kts | 182° |
| 2026-05-04 01:32 | 70.28765 | -128.00000 | 39995 ft | 499 kts | 182° |
| 2026-05-04 01:32 | 70.21871 | -128.00000 | 39993 ft | 499 kts | 182° |
| 2026-05-04 01:33 | 70.14928 | -128.00000 | 39993 ft | 499 kts | 182° |
| 2026-05-04 01:33 | 70.07987 | -128.00001 | 39995 ft | 499 kts | 182° |
| 2026-05-04 01:34 | 70.01042 | -128.00002 | 40066 ft | 500 kts | 182° |
| 2026-05-04 01:34 | 69.97561 | -127.99910 | 40171 ft | 500 kts | 180° |
| 2026-05-04 01:34 | 69.94086 | -127.99276 | 40270 ft | 501 kts | 177° |
| 2026-05-04 01:34 | 69.90616 | -127.98313 | 40371 ft | 501 kts | 176° |
| 2026-05-04 01:35 | 69.87148 | -127.97253 | 40484 ft | 501 kts | 176° |
| 2026-05-04 01:35 | 69.80201 | -127.95230 | 40671 ft | 501 kts | 176° |
| 2026-05-04 01:35 | 69.76734 | -127.94313 | 40775 ft | 501 kts | 177° |
| 2026-05-04 01:36 | 69.73256 | -127.93438 | 40862 ft | 501 kts | 177° |
| 2026-05-04 01:36 | 69.66306 | -127.91764 | 41002 ft | 501 kts | 177° |
| 2026-05-04 01:37 | 69.59358 | -127.90121 | 41009 ft | 501 kts | 177° |
| 2026-05-04 01:37 | 69.52437 | -127.88486 | 41015 ft | 502 kts | 177° |
| 2026-05-04 01:38 | 69.45477 | -127.86846 | 41019 ft | 502 kts | 177° |
| 2026-05-04 01:38 | 69.38521 | -127.85214 | 41024 ft | 502 kts | 177° |
| 2026-05-04 01:39 | 69.31557 | -127.83592 | 41015 ft | 502 kts | 177° |
| 2026-05-04 01:39 | 69.24629 | -127.81990 | 41033 ft | 502 kts | 177° |
| 2026-05-04 01:40 | 69.17669 | -127.80390 | 41028 ft | 502 kts | 178° |
| 2026-05-04 01:40 | 69.10702 | -127.78799 | 41031 ft | 502 kts | 178° |
| 2026-05-04 01:41 | 69.03722 | -127.77215 | 41037 ft | 503 kts | 178° |
| 2026-05-04 01:41 | 68.96750 | -127.75643 | 41036 ft | 503 kts | 178° |
| 2026-05-04 01:42 | 68.89769 | -127.74078 | 41036 ft | 503 kts | 178° |
| 2026-05-04 01:42 | 68.82790 | -127.72524 | 41037 ft | 503 kts | 178° |
| 2026-05-04 01:43 | 68.75810 | -127.70980 | 41041 ft | 503 kts | 178° |
| 2026-05-04 01:43 | 68.68833 | -127.69446 | 41042 ft | 503 kts | 178° |
| 2026-05-04 01:44 | 68.61846 | -127.67919 | 41049 ft | 503 kts | 178° |
| 2026-05-04 01:44 | 68.54845 | -127.66399 | 41039 ft | 503 kts | 178° |
| 2026-05-04 01:45 | 68.47906 | -127.64901 | 41056 ft | 504 kts | 178° |
| 2026-05-04 01:45 | 68.37427 | -127.62657 | 41055 ft | 504 kts | 178° |
| 2026-05-04 01:46 | 68.30421 | -127.61169 | 41064 ft | 504 kts | 178° |
| 2026-05-04 01:46 | 68.23427 | -127.59692 | 41064 ft | 504 kts | 178° |
| 2026-05-04 01:47 | 68.16429 | -127.58223 | 41072 ft | 504 kts | 178° |
| 2026-05-04 01:47 | 68.09428 | -127.56763 | 41072 ft | 505 kts | 178° |
| 2026-05-04 01:48 | 68.02421 | -127.55309 | 41075 ft | 504 kts | 178° |
| 2026-05-04 01:48 | 67.95418 | -127.53866 | 41063 ft | 505 kts | 178° |
| 2026-05-04 01:49 | 67.88405 | -127.52430 | 41077 ft | 505 kts | 178° |
| 2026-05-04 01:49 | 67.81393 | -127.51002 | 41083 ft | 505 kts | 179° |
| 2026-05-04 01:50 | 67.74421 | -127.49591 | 41083 ft | 505 kts | 179° |
| 2026-05-04 01:50 | 67.67412 | -127.48182 | 41088 ft | 505 kts | 179° |
| 2026-05-04 01:51 | 67.60397 | -127.46778 | 41085 ft | 505 kts | 179° |
| 2026-05-04 01:51 | 67.53738 | -127.45455 | 41089 ft | 506 kts | 179° |
| 2026-05-04 01:52 | 67.47895 | -127.44300 | 41091 ft | 507 kts | 179° |
| 2026-05-04 01:52 | 67.40864 | -127.42916 | 41091 ft | 507 kts | 179° |
| 2026-05-04 01:53 | 67.33830 | -127.41540 | 41087 ft | 507 kts | 179° |
| 2026-05-04 01:53 | 67.26799 | -127.40173 | 41096 ft | 506 kts | 179° |
| 2026-05-04 01:54 | 67.19767 | -127.38814 | 41101 ft | 507 kts | 179° |
| 2026-05-04 01:54 | 67.12763 | -127.37469 | 41091 ft | 507 kts | 179° |
| 2026-05-04 01:55 | 67.05722 | -127.36125 | 41093 ft | 508 kts | 179° |
| 2026-05-04 01:55 | 66.98679 | -127.34787 | 41092 ft | 508 kts | 179° |
| 2026-05-04 01:56 | 66.91623 | -127.33454 | 41093 ft | 508 kts | 179° |
| 2026-05-04 01:56 | 66.84577 | -127.32131 | 41095 ft | 508 kts | 179° |
| 2026-05-04 01:57 | 66.77526 | -127.30815 | 41094 ft | 508 kts | 179° |
| 2026-05-04 01:57 | 66.70483 | -127.29508 | 41099 ft | 508 kts | 179° |
| 2026-05-04 01:58 | 66.63433 | -127.28208 | 41102 ft | 508 kts | 179° |
| 2026-05-04 01:58 | 66.56387 | -127.26916 | 41108 ft | 508 kts | 179° |
| 2026-05-04 01:59 | 66.49341 | -127.25630 | 41110 ft | 508 kts | 179° |
| 2026-05-04 01:59 | 66.42338 | -127.24360 | 41111 ft | 508 kts | 179° |
| 2026-05-04 02:00 | 66.35276 | -127.23087 | 41117 ft | 509 kts | 179° |
| 2026-05-04 02:00 | 66.28206 | -127.21818 | 41123 ft | 509 kts | 179° |
| 2026-05-04 02:01 | 66.21586 | -127.20638 | 41114 ft | 509 kts | 179° |
| 2026-05-04 02:01 | 66.14526 | -127.19386 | 41126 ft | 507 kts | 179° |
| 2026-05-04 02:02 | 66.07486 | -127.18143 | 41116 ft | 507 kts | 179° |
| 2026-05-04 02:02 | 66.00476 | -127.16913 | 41135 ft | 508 kts | 179° |
| 2026-05-04 02:03 | 65.93426 | -127.15683 | 41134 ft | 508 kts | 179° |
| 2026-05-04 02:03 | 65.86360 | -127.14456 | 41135 ft | 508 kts | 179° |
| 2026-05-04 02:04 | 65.79304 | -127.13238 | 41143 ft | 508 kts | 179° |
| 2026-05-04 02:04 | 65.72243 | -127.12027 | 41143 ft | 508 kts | 179° |
| 2026-05-04 02:05 | 65.65184 | -127.10822 | 41148 ft | 509 kts | 179° |
| 2026-05-04 02:05 | 65.58157 | -127.09630 | 41147 ft | 509 kts | 179° |
| 2026-05-04 02:06 | 65.51082 | -127.08435 | 41154 ft | 509 kts | 179° |
| 2026-05-04 02:06 | 65.44008 | -127.07247 | 41155 ft | 509 kts | 179° |
| 2026-05-04 02:07 | 65.36934 | -127.06066 | 41156 ft | 509 kts | 179° |
| 2026-05-04 02:07 | 65.29857 | -127.04890 | 41154 ft | 509 kts | 179° |
| 2026-05-04 02:08 | 65.22820 | -127.03728 | 41155 ft | 510 kts | 179° |
| 2026-05-04 02:08 | 65.15730 | -127.02563 | 41159 ft | 511 kts | 179° |
| 2026-05-04 02:09 | 65.08632 | -127.01402 | 41158 ft | 511 kts | 179° |
| 2026-05-04 02:09 | 65.01539 | -127.00249 | 41156 ft | 510 kts | 179° |
| 2026-05-04 02:10 | 64.94457 | -126.98916 | 41150 ft | 511 kts | 178° |
| 2026-05-04 02:10 | 64.87378 | -126.97160 | 41162 ft | 511 kts | 177° |
| 2026-05-04 02:11 | 64.80299 | -126.95394 | 41169 ft | 511 kts | 177° |
| 2026-05-04 02:11 | 64.73263 | -126.93717 | 41164 ft | 511 kts | 178° |
| 2026-05-04 02:12 | 64.66179 | -126.92073 | 41165 ft | 511 kts | 178° |
| 2026-05-04 02:12 | 64.59097 | -126.90445 | 41159 ft | 511 kts | 178° |
| 2026-05-04 02:13 | 64.52015 | -126.88823 | 41159 ft | 512 kts | 178° |
| 2026-05-04 02:13 | 64.44918 | -126.87202 | 41147 ft | 512 kts | 178° |
| 2026-05-04 02:14 | 64.37828 | -126.85590 | 41159 ft | 512 kts | 178° |
| 2026-05-04 02:14 | 64.30731 | -126.83990 | 41156 ft | 512 kts | 178° |
| 2026-05-04 02:15 | 64.23641 | -126.82398 | 41150 ft | 512 kts | 178° |
| 2026-05-04 02:15 | 64.16567 | -126.80818 | 41152 ft | 513 kts | 178° |
| 2026-05-04 02:16 | 64.09444 | -126.79236 | 41154 ft | 514 kts | 178° |
| 2026-05-04 02:16 | 64.02365 | -126.77668 | 41150 ft | 514 kts | 178° |
| 2026-05-04 02:17 | 63.95244 | -126.76100 | 41151 ft | 514 kts | 178° |
| 2026-05-04 02:17 | 63.88124 | -126.74540 | 41148 ft | 514 kts | 178° |
| 2026-05-04 02:18 | 63.80984 | -126.72986 | 41153 ft | 517 kts | 179° |
| 2026-05-04 02:18 | 63.73811 | -126.71434 | 41148 ft | 518 kts | 179° |
| 2026-05-04 02:19 | 63.66637 | -126.69886 | 41148 ft | 518 kts | 179° |
| 2026-05-04 02:19 | 63.59452 | -126.68343 | 41149 ft | 518 kts | 179° |
| 2026-05-04 02:20 | 63.52271 | -126.66808 | 41144 ft | 518 kts | 179° |
| 2026-05-04 02:20 | 63.45083 | -126.65282 | 41151 ft | 519 kts | 179° |
| 2026-05-04 02:21 | 63.37882 | -126.63763 | 41162 ft | 520 kts | 179° |
| 2026-05-04 02:21 | 63.30670 | -126.62247 | 41148 ft | 520 kts | 179° |
| 2026-05-04 02:22 | 63.23504 | -126.60745 | 41156 ft | 521 kts | 180° |
| 2026-05-04 02:22 | 63.16279 | -126.59239 | 41162 ft | 522 kts | 180° |
| 2026-05-04 02:23 | 63.09057 | -126.57747 | 41162 ft | 521 kts | 180° |
| 2026-05-04 02:23 | 63.01836 | -126.56258 | 41155 ft | 521 kts | 180° |
| 2026-05-04 02:24 | 62.94596 | -126.54771 | 41166 ft | 521 kts | 180° |
| 2026-05-04 02:24 | 62.87375 | -126.53298 | 41161 ft | 521 kts | 180° |
| 2026-05-04 02:25 | 62.80194 | -126.51846 | 41162 ft | 521 kts | 180° |
| 2026-05-04 02:25 | 62.72960 | -126.50383 | 41161 ft | 523 kts | 180° |
| 2026-05-04 02:26 | 62.65727 | -126.48915 | 41170 ft | 521 kts | 181° |
| 2026-05-04 02:26 | 62.58509 | -126.47473 | 41170 ft | 520 kts | 181° |
| 2026-05-04 02:27 | 62.51313 | -126.46043 | 41172 ft | 520 kts | 181° |
| 2026-05-04 02:27 | 62.44103 | -126.44618 | 41177 ft | 520 kts | 181° |
| 2026-05-04 02:28 | 62.36889 | -126.43199 | 41177 ft | 522 kts | 181° |
| 2026-05-04 02:28 | 62.29694 | -126.41788 | 41170 ft | 522 kts | 181° |
| 2026-05-04 02:29 | 62.22455 | -126.40372 | 41162 ft | 522 kts | 181° |
| 2026-05-04 02:29 | 62.15217 | -126.38963 | 41127 ft | 522 kts | 181° |
| 2026-05-04 02:30 | 62.07996 | -126.37557 | 41162 ft | 519 kts | 181° |
| 2026-05-04 02:30 | 62.00796 | -126.36186 | 41150 ft | 521 kts | 181° |
| 2026-05-04 02:31 | 61.93562 | -126.34803 | 41144 ft | 521 kts | 181° |
| 2026-05-04 02:31 | 61.86333 | -126.33418 | 41138 ft | 521 kts | 181° |
| 2026-05-04 02:32 | 61.79118 | -126.32044 | 41127 ft | 521 kts | 181° |
| 2026-05-04 02:32 | 61.71931 | -126.30685 | 41120 ft | 521 kts | 181° |
| 2026-05-04 02:33 | 61.64957 | -126.29376 | 41131 ft | 522 kts | 181° |
| 2026-05-04 02:33 | 61.57717 | -126.28016 | 41112 ft | 522 kts | 181° |
| 2026-05-04 02:34 | 61.50481 | -126.26663 | 41127 ft | 522 kts | 181° |
| 2026-05-04 02:34 | 61.43241 | -126.25325 | 41122 ft | 521 kts | 181° |
| 2026-05-04 02:35 | 61.36009 | -126.24002 | 41128 ft | 522 kts | 181° |
| 2026-05-04 02:35 | 61.28806 | -126.22683 | 41127 ft | 523 kts | 181° |
| 2026-05-04 02:36 | 61.21550 | -126.21349 | 41126 ft | 523 kts | 181° |
| 2026-05-04 02:36 | 61.14296 | -126.20026 | 41131 ft | 523 kts | 181° |
| 2026-05-04 02:37 | 61.07046 | -126.18714 | 41126 ft | 523 kts | 181° |
| 2026-05-04 02:37 | 60.99795 | -126.17406 | 41124 ft | 523 kts | 181° |
| 2026-05-04 02:38 | 60.92534 | -126.16103 | 41123 ft | 523 kts | 181° |
| 2026-05-04 02:38 | 60.85275 | -126.14807 | 41124 ft | 523 kts | 181° |
| 2026-05-04 02:39 | 60.78009 | -126.13515 | 41120 ft | 523 kts | 181° |
| 2026-05-04 02:39 | 60.70801 | -126.12237 | 41121 ft | 523 kts | 181° |
| 2026-05-04 02:40 | 60.63533 | -126.10956 | 41120 ft | 525 kts | 181° |
| 2026-05-04 02:40 | 60.56251 | -126.09681 | 41125 ft | 526 kts | 181° |
| 2026-05-04 02:41 | 60.48956 | -126.08405 | 41078 ft | 525 kts | 181° |
| 2026-05-04 02:41 | 60.41665 | -126.07135 | 41121 ft | 526 kts | 181° |
| 2026-05-04 02:42 | 60.35595 | -126.06085 | 41113 ft | 526 kts | 181° |
| 2026-05-04 02:42 | 60.28291 | -126.04827 | 41122 ft | 528 kts | 181° |
| 2026-05-04 02:43 | 60.20970 | -126.03570 | 41127 ft | 528 kts | 181° |
| 2026-05-04 02:43 | 60.13648 | -126.02317 | 41125 ft | 528 kts | 181° |
| 2026-05-04 02:44 | 60.06317 | -126.01068 | 41128 ft | 528 kts | 181° |
| 2026-05-04 02:44 | 59.98984 | -125.99826 | 41135 ft | 528 kts | 181° |
| 2026-05-04 02:45 | 59.91653 | -125.98267 | 41129 ft | 532 kts | 179° |
| 2026-05-04 02:45 | 59.84282 | -125.96483 | 41138 ft | 534 kts | 179° |
| 2026-05-04 02:46 | 59.76943 | -125.94746 | 41144 ft | 534 kts | 179° |
| 2026-05-04 02:46 | 59.69570 | -125.93061 | 41143 ft | 534 kts | 179° |
| 2026-05-04 02:47 | 59.62185 | -125.91398 | 41137 ft | 534 kts | 179° |
| 2026-05-04 02:47 | 59.54794 | -125.89754 | 41142 ft | 533 kts | 179° |
| 2026-05-04 02:48 | 59.47651 | -125.88160 | 41140 ft | 533 kts | 179° |
| 2026-05-04 02:48 | 59.40307 | -125.86523 | 41139 ft | 533 kts | 179° |
| 2026-05-04 02:49 | 59.32929 | -125.84887 | 41142 ft | 535 kts | 180° |
| 2026-05-04 02:49 | 59.25508 | -125.83254 | 41140 ft | 538 kts | 179° |
| 2026-05-04 02:50 | 59.18062 | -125.81619 | 41143 ft | 538 kts | 179° |
| 2026-05-04 02:50 | 59.10623 | -125.79988 | 41145 ft | 537 kts | 179° |
| 2026-05-04 02:51 | 59.03185 | -125.78362 | 41135 ft | 537 kts | 179° |
| 2026-05-04 02:51 | 58.95736 | -125.76754 | 41141 ft | 539 kts | 179° |
| 2026-05-04 02:52 | 58.88315 | -125.75160 | 41137 ft | 539 kts | 179° |
| 2026-05-04 02:52 | 58.80851 | -125.73556 | 41125 ft | 539 kts | 180° |
| 2026-05-04 02:53 | 58.73379 | -125.71961 | 41140 ft | 539 kts | 180° |
| 2026-05-04 02:53 | 58.65916 | -125.70377 | 41139 ft | 540 kts | 180° |
| 2026-05-04 02:54 | 58.58432 | -125.68793 | 41140 ft | 541 kts | 180° |
| 2026-05-04 02:54 | 58.50950 | -125.67213 | 41143 ft | 541 kts | 180° |
| 2026-05-04 02:55 | 58.39721 | -125.64851 | 41146 ft | 541 kts | 180° |
| 2026-05-04 02:56 | 58.32224 | -125.63282 | 41148 ft | 542 kts | 180° |
| 2026-05-04 02:56 | 58.24785 | -125.61728 | 41122 ft | 542 kts | 180° |
| 2026-05-04 02:57 | 58.17290 | -125.60178 | 41135 ft | 542 kts | 180° |
| 2026-05-04 02:57 | 58.09797 | -125.58645 | 41139 ft | 541 kts | 180° |
| 2026-05-04 02:58 | 58.02303 | -125.57115 | 41122 ft | 542 kts | 180° |
| 2026-05-04 02:58 | 57.94784 | -125.55578 | 41118 ft | 543 kts | 180° |
| 2026-05-04 02:59 | 57.87264 | -125.54048 | 41125 ft | 544 kts | 180° |
| 2026-05-04 02:59 | 57.79740 | -125.52517 | 41106 ft | 543 kts | 180° |
| 2026-05-04 03:00 | 57.72229 | -125.50995 | 41089 ft | 545 kts | 180° |
| 2026-05-04 03:00 | 57.64689 | -125.49480 | 41105 ft | 545 kts | 180° |
| 2026-05-04 03:01 | 57.57137 | -125.47973 | 41105 ft | 546 kts | 180° |
| 2026-05-04 03:01 | 57.49587 | -125.46472 | 41102 ft | 545 kts | 180° |
| 2026-05-04 03:02 | 57.42089 | -125.44988 | 41104 ft | 546 kts | 180° |
| 2026-05-04 03:02 | 57.34515 | -125.43497 | 41086 ft | 547 kts | 180° |
| 2026-05-04 03:03 | 57.26942 | -125.42012 | 41102 ft | 547 kts | 180° |
| 2026-05-04 03:03 | 57.19369 | -125.40517 | 41060 ft | 547 kts | 180° |
| 2026-05-04 03:04 | 57.11802 | -125.39031 | 41100 ft | 545 kts | 180° |
| 2026-05-04 03:04 | 57.04284 | -125.37570 | 41100 ft | 546 kts | 180° |
| 2026-05-04 03:05 | 56.96730 | -125.36119 | 41103 ft | 546 kts | 180° |
| 2026-05-04 03:05 | 56.89154 | -125.34665 | 41099 ft | 546 kts | 180° |
| 2026-05-04 03:06 | 56.81595 | -125.33205 | 41104 ft | 546 kts | 180° |
| 2026-05-04 03:06 | 56.74082 | -125.31769 | 41104 ft | 547 kts | 179° |
| 2026-05-04 03:07 | 56.66531 | -125.30327 | 41070 ft | 547 kts | 179° |
| 2026-05-04 03:07 | 56.58968 | -125.28890 | 41117 ft | 545 kts | 180° |
| 2026-05-04 03:08 | 56.51422 | -125.27464 | 41118 ft | 545 kts | 180° |
| 2026-05-04 03:08 | 56.43873 | -125.26045 | 41098 ft | 546 kts | 180° |
| 2026-05-04 03:09 | 56.36313 | -125.24641 | 41105 ft | 545 kts | 180° |
| 2026-05-04 03:09 | 56.28752 | -125.23232 | 41128 ft | 546 kts | 180° |
| 2026-05-04 03:10 | 56.21244 | -125.21822 | 41109 ft | 546 kts | 180° |
| 2026-05-04 03:10 | 56.13672 | -125.20420 | 41084 ft | 547 kts | 179° |
| 2026-05-04 03:11 | 56.06099 | -125.19028 | 41120 ft | 546 kts | 179° |
| 2026-05-04 03:11 | 55.98531 | -125.17631 | 41118 ft | 546 kts | 179° |
| 2026-05-04 03:12 | 55.90981 | -125.16244 | 41121 ft | 546 kts | 179° |
| 2026-05-04 03:12 | 55.83407 | -125.14862 | 41115 ft | 547 kts | 179° |
| 2026-05-04 03:13 | 55.75830 | -125.13487 | 41119 ft | 547 kts | 179° |
| 2026-05-04 03:13 | 55.68254 | -125.12115 | 41117 ft | 547 kts | 179° |
| 2026-05-04 03:14 | 55.60734 | -125.10762 | 41121 ft | 547 kts | 179° |
| 2026-05-04 03:14 | 55.53160 | -125.09402 | 41117 ft | 547 kts | 179° |
| 2026-05-04 03:15 | 55.45577 | -125.08046 | 41113 ft | 547 kts | 179° |
| 2026-05-04 03:15 | 55.37998 | -125.06693 | 41114 ft | 547 kts | 179° |
| 2026-05-04 03:16 | 55.30412 | -125.05347 | 41101 ft | 548 kts | 179° |
| 2026-05-04 03:16 | 55.22824 | -125.04007 | 41102 ft | 548 kts | 179° |
| 2026-05-04 03:17 | 55.15228 | -125.02668 | 41103 ft | 548 kts | 179° |
| 2026-05-04 03:17 | 55.07639 | -125.01336 | 41098 ft | 547 kts | 179° |
| 2026-05-04 03:18 | 55.00067 | -125.00013 | 41101 ft | 546 kts | 178° |
| 2026-05-04 03:18 | 54.92505 | -124.98263 | 41103 ft | 549 kts | 174° |
| 2026-05-04 03:19 | 54.84969 | -124.96031 | 41108 ft | 550 kts | 174° |
| 2026-05-04 03:19 | 54.77474 | -124.93849 | 41108 ft | 549 kts | 174° |
| 2026-05-04 03:20 | 54.69928 | -124.91756 | 41109 ft | 549 kts | 174° |
| 2026-05-04 03:20 | 54.62373 | -124.89708 | 41110 ft | 550 kts | 174° |
| 2026-05-04 03:21 | 54.54804 | -124.87671 | 41100 ft | 550 kts | 174° |
| 2026-05-04 03:21 | 54.47255 | -124.85641 | 41109 ft | 548 kts | 174° |
| 2026-05-04 03:22 | 54.39714 | -124.83620 | 41105 ft | 549 kts | 174° |
| 2026-05-04 03:22 | 54.32199 | -124.81613 | 41101 ft | 549 kts | 174° |
| 2026-05-04 03:23 | 54.24640 | -124.79600 | 41110 ft | 549 kts | 174° |
| 2026-05-04 03:23 | 54.17081 | -124.77594 | 41109 ft | 550 kts | 174° |
| 2026-05-04 03:24 | 54.09522 | -124.75596 | 41103 ft | 550 kts | 174° |
| 2026-05-04 03:24 | 54.01954 | -124.73604 | 41091 ft | 549 kts | 174° |
| 2026-05-04 03:25 | 53.94412 | -124.71625 | 41100 ft | 548 kts | 174° |
| 2026-05-04 03:25 | 53.86878 | -124.69656 | 41095 ft | 547 kts | 174° |
| 2026-05-04 03:26 | 53.79343 | -124.67695 | 41099 ft | 548 kts | 173° |
| 2026-05-04 03:26 | 53.71803 | -124.65739 | 41102 ft | 548 kts | 173° |
| 2026-05-04 03:27 | 53.64266 | -124.63792 | 41096 ft | 548 kts | 173° |
| 2026-05-04 03:27 | 53.56778 | -124.61861 | 41098 ft | 548 kts | 173° |
| 2026-05-04 03:28 | 53.49231 | -124.59924 | 41086 ft | 548 kts | 173° |
| 2026-05-04 03:28 | 53.41710 | -124.58000 | 41094 ft | 546 kts | 173° |
| 2026-05-04 03:29 | 53.34203 | -124.56087 | 41095 ft | 546 kts | 173° |
| 2026-05-04 03:29 | 53.26695 | -124.54182 | 41094 ft | 546 kts | 173° |
| 2026-05-04 03:30 | 53.20441 | -124.52600 | 41092 ft | 546 kts | 173° |
| 2026-05-04 03:30 | 53.12921 | -124.50698 | 41092 ft | 546 kts | 173° |
| 2026-05-04 03:31 | 53.05395 | -124.48806 | 41092 ft | 546 kts | 173° |
| 2026-05-04 03:31 | 52.97880 | -124.46927 | 41064 ft | 546 kts | 173° |
| 2026-05-04 03:32 | 52.90373 | -124.45053 | 41089 ft | 545 kts | 173° |
| 2026-05-04 03:32 | 52.82870 | -124.43186 | 41084 ft | 544 kts | 173° |
| 2026-05-04 03:33 | 52.75419 | -124.41340 | 41085 ft | 545 kts | 173° |
| 2026-05-04 03:33 | 52.67920 | -124.39488 | 41083 ft | 545 kts | 173° |
| 2026-05-04 03:34 | 52.60421 | -124.37642 | 41074 ft | 545 kts | 173° |
| 2026-05-04 03:34 | 52.52919 | -124.35802 | 41066 ft | 545 kts | 173° |
| 2026-05-04 03:35 | 52.45414 | -124.33967 | 41043 ft | 545 kts | 172° |
| 2026-05-04 03:35 | 52.37929 | -124.32144 | 41059 ft | 543 kts | 172° |
| 2026-05-04 03:36 | 52.30443 | -124.30326 | 41042 ft | 543 kts | 172° |
| 2026-05-04 03:36 | 52.22957 | -124.28515 | 41037 ft | 543 kts | 172° |
| 2026-05-04 03:37 | 52.15484 | -124.26713 | 41039 ft | 543 kts | 172° |
| 2026-05-04 03:37 | 52.08010 | -124.24916 | 41029 ft | 543 kts | 172° |
| 2026-05-04 03:38 | 52.00582 | -124.23137 | 41028 ft | 543 kts | 172° |
| 2026-05-04 03:38 | 51.93097 | -124.21350 | 41025 ft | 543 kts | 172° |
| 2026-05-04 03:39 | 51.85629 | -124.19573 | 41030 ft | 542 kts | 172° |
| 2026-05-04 03:39 | 51.78168 | -124.17804 | 41028 ft | 542 kts | 172° |
| 2026-05-04 03:40 | 51.70705 | -124.16041 | 41040 ft | 542 kts | 172° |
| 2026-05-04 03:40 | 51.63240 | -124.14283 | 41036 ft | 542 kts | 172° |
| 2026-05-04 03:41 | 51.55766 | -124.12528 | 41031 ft | 541 kts | 172° |
| 2026-05-04 03:41 | 51.48311 | -124.10786 | 41039 ft | 541 kts | 172° |
| 2026-05-04 03:42 | 51.40857 | -124.09039 | 41040 ft | 542 kts | 171° |
| 2026-05-04 03:42 | 51.33519 | -124.07334 | 41043 ft | 540 kts | 171° |
| 2026-05-04 03:43 | 51.26037 | -124.05605 | 41046 ft | 540 kts | 171° |
| 2026-05-04 03:43 | 51.18649 | -124.03901 | 41043 ft | 540 kts | 171° |
| 2026-05-04 03:44 | 51.11208 | -124.02189 | 41052 ft | 540 kts | 171° |
| 2026-05-04 03:44 | 51.03768 | -124.00479 | 41046 ft | 541 kts | 171° |
| 2026-05-04 03:45 | 50.96325 | -123.98760 | 41061 ft | 541 kts | 171° |
| 2026-05-04 03:45 | 50.88888 | -123.97057 | 41039 ft | 538 kts | 171° |
| 2026-05-04 03:46 | 50.81476 | -123.95389 | 41045 ft | 538 kts | 171° |
| 2026-05-04 03:46 | 50.74056 | -123.93706 | 41022 ft | 538 kts | 171° |
| 2026-05-04 03:47 | 50.66680 | -123.92028 | 40986 ft | 536 kts | 171° |
| 2026-05-04 03:47 | 50.59293 | -123.90370 | 41032 ft | 536 kts | 171° |
| 2026-05-04 03:48 | 50.51888 | -123.88704 | 41018 ft | 538 kts | 171° |
| 2026-05-04 03:48 | 50.44456 | -123.87051 | 41023 ft | 539 kts | 171° |
| 2026-05-04 03:49 | 50.37035 | -123.85404 | 41009 ft | 539 kts | 171° |
| 2026-05-04 03:49 | 50.29622 | -123.83769 | 40985 ft | 538 kts | 171° |
| 2026-05-04 03:50 | 50.22192 | -123.82130 | 40970 ft | 538 kts | 171° |
| 2026-05-04 03:50 | 50.14780 | -123.80491 | 40989 ft | 538 kts | 171° |
| 2026-05-04 03:51 | 50.07416 | -123.78865 | 40969 ft | 538 kts | 171° |
| 2026-05-04 03:51 | 49.99993 | -123.77239 | 40966 ft | 538 kts | 171° |
| 2026-05-04 03:52 | 49.92580 | -123.75620 | 40945 ft | 538 kts | 171° |
| 2026-05-04 03:52 | 49.85172 | -123.74001 | 40924 ft | 537 kts | 170° |
| 2026-05-04 03:53 | 49.77775 | -123.72348 | 40926 ft | 537 kts | 169° |
| 2026-05-04 03:53 | 49.70416 | -123.70452 | 40906 ft | 536 kts | 168° |
| 2026-05-04 03:54 | 49.63065 | -123.68521 | 40922 ft | 536 kts | 168° |
| 2026-05-04 03:54 | 49.55704 | -123.66621 | 40890 ft | 536 kts | 168° |
| 2026-05-04 03:55 | 49.48391 | -123.64761 | 40873 ft | 535 kts | 168° |
| 2026-05-04 03:55 | 49.41051 | -123.62908 | 40907 ft | 534 kts | 168° |
| 2026-05-04 03:56 | 49.33716 | -123.61063 | 40894 ft | 534 kts | 168° |
| 2026-05-04 03:56 | 49.26371 | -123.59356 | 40898 ft | 534 kts | 170° |
| 2026-05-04 03:57 | 49.18995 | -123.57881 | 40893 ft | 534 kts | 171° |
| 2026-05-04 03:57 | 49.11627 | -123.56415 | 40889 ft | 533 kts | 170° |
| 2026-05-04 03:58 | 49.00600 | -123.54163 | 40880 ft | 533 kts | 169° |
| 2026-05-04 03:58 | 48.93302 | -123.52661 | 40894 ft | 532 kts | 169° |
| 2026-05-04 03:59 | 48.85966 | -123.51158 | 40888 ft | 531 kts | 169° |
| 2026-05-04 03:59 | 48.78639 | -123.49661 | 40888 ft | 530 kts | 169° |
| 2026-05-04 04:00 | 48.71303 | -123.48450 | 40886 ft | 532 kts | 174° |
| 2026-05-04 04:00 | 48.63902 | -123.47971 | 40890 ft | 532 kts | 176° |
| 2026-05-04 04:01 | 48.56548 | -123.47629 | 40880 ft | 531 kts | 176° |
| 2026-05-04 04:01 | 48.49161 | -123.47295 | 40896 ft | 531 kts | 176° |
| 2026-05-04 04:02 | 48.41770 | -123.46947 | 40897 ft | 531 kts | 175° |
| 2026-05-04 04:02 | 48.34387 | -123.46591 | 40898 ft | 531 kts | 175° |
| 2026-05-04 04:03 | 48.26993 | -123.46234 | 40890 ft | 531 kts | 175° |
| 2026-05-04 04:03 | 48.19608 | -123.45888 | 40885 ft | 531 kts | 175° |
| 2026-05-04 04:04 | 48.12232 | -123.45534 | 40906 ft | 530 kts | 175° |
| 2026-05-04 04:04 | 48.04864 | -123.45177 | 40907 ft | 529 kts | 175° |
| 2026-05-04 04:05 | 47.97540 | -123.44828 | 40907 ft | 529 kts | 175° |
| 2026-05-04 04:05 | 47.90186 | -123.44480 | 40921 ft | 528 kts | 175° |
| 2026-05-04 04:06 | 47.82848 | -123.44124 | 40917 ft | 527 kts | 175° |
| 2026-05-04 04:06 | 47.75513 | -123.43781 | 40913 ft | 527 kts | 175° |
| 2026-05-04 04:07 | 47.68178 | -123.43439 | 40924 ft | 527 kts | 175° |
| 2026-05-04 04:07 | 47.60851 | -123.43116 | 40916 ft | 527 kts | 175° |
| 2026-05-04 04:08 | 47.53520 | -123.42776 | 40897 ft | 526 kts | 175° |
| 2026-05-04 04:08 | 47.46201 | -123.42408 | 40887 ft | 526 kts | 175° |
| 2026-05-04 04:09 | 47.38874 | -123.42054 | 40875 ft | 527 kts | 175° |
| 2026-05-04 04:09 | 47.31546 | -123.41726 | 40874 ft | 527 kts | 174° |
| 2026-05-04 04:10 | 47.24262 | -123.41390 | 40870 ft | 526 kts | 175° |
| 2026-05-04 04:10 | 47.16945 | -123.41055 | 40876 ft | 526 kts | 175° |
| 2026-05-04 04:11 | 47.09625 | -123.40825 | 40867 ft | 524 kts | 176° |
| 2026-05-04 04:11 | 47.02328 | -123.40744 | 40867 ft | 524 kts | 176° |
| 2026-05-04 04:12 | 46.95037 | -123.40645 | 40867 ft | 522 kts | 176° |
| 2026-05-04 04:12 | 46.87787 | -123.40539 | 40866 ft | 519 kts | 176° |
| 2026-05-04 04:13 | 46.80571 | -123.40429 | 40870 ft | 518 kts | 176° |
| 2026-05-04 04:13 | 46.73362 | -123.40319 | 40864 ft | 518 kts | 176° |
| 2026-05-04 04:14 | 46.66189 | -123.40209 | 40870 ft | 518 kts | 176° |
| 2026-05-04 04:14 | 46.58960 | -123.40099 | 40860 ft | 519 kts | 176° |
| 2026-05-04 04:15 | 46.51733 | -123.39990 | 40861 ft | 519 kts | 176° |
| 2026-05-04 04:15 | 46.44507 | -123.39880 | 40866 ft | 519 kts | 176° |
| 2026-05-04 04:16 | 46.37257 | -123.39771 | 40855 ft | 520 kts | 176° |
| 2026-05-04 04:16 | 46.30020 | -123.39662 | 40854 ft | 520 kts | 176° |
| 2026-05-04 04:17 | 46.24007 | -123.39572 | 40851 ft | 520 kts | 176° |
| 2026-05-04 04:17 | 46.15613 | -123.39447 | 40845 ft | 519 kts | 176° |
| 2026-05-04 04:18 | 46.08392 | -123.39339 | 40844 ft | 519 kts | 176° |
| 2026-05-04 04:18 | 46.02336 | -123.39248 | 40843 ft | 519 kts | 176° |
| 2026-05-04 04:19 | 45.95164 | -123.39142 | 40843 ft | 519 kts | 176° |
| 2026-05-04 04:19 | 45.87940 | -123.39035 | 40840 ft | 519 kts | 176° |
| 2026-05-04 04:20 | 45.80725 | -123.38928 | 40837 ft | 519 kts | 176° |
| 2026-05-04 04:20 | 45.73507 | -123.38822 | 40862 ft | 519 kts | 176° |
| 2026-05-04 04:21 | 45.66301 | -123.38716 | 40847 ft | 517 kts | 176° |
| 2026-05-04 04:21 | 45.59240 | -123.38612 | 40852 ft | 517 kts | 176° |
| 2026-05-04 04:22 | 45.52454 | -123.38513 | 40830 ft | 517 kts | 176° |
| 2026-05-04 04:22 | 45.45270 | -123.38408 | 40838 ft | 515 kts | 176° |
| 2026-05-04 04:23 | 45.38120 | -123.38304 | 40831 ft | 514 kts | 176° |
| 2026-05-04 04:23 | 45.30971 | -123.38200 | 40826 ft | 514 kts | 176° |
| 2026-05-04 04:24 | 45.23815 | -123.38096 | 40816 ft | 512 kts | 176° |
| 2026-05-04 04:24 | 45.16698 | -123.37994 | 40818 ft | 511 kts | 176° |
| 2026-05-04 04:25 | 45.09631 | -123.37893 | 40813 ft | 511 kts | 176° |
| 2026-05-04 04:25 | 45.02523 | -123.37790 | 40832 ft | 510 kts | 176° |
| 2026-05-04 04:26 | 44.95444 | -123.37688 | 40828 ft | 508 kts | 176° |
| 2026-05-04 04:26 | 44.88375 | -123.37587 | 40828 ft | 508 kts | 176° |
| 2026-05-04 04:27 | 44.81312 | -123.37486 | 40832 ft | 507 kts | 176° |
| 2026-05-04 04:27 | 44.74256 | -123.37386 | 40851 ft | 506 kts | 176° |
| 2026-05-04 04:28 | 44.67221 | -123.37286 | 40852 ft | 505 kts | 176° |
| 2026-05-04 04:28 | 44.60186 | -123.37186 | 40866 ft | 505 kts | 177° |
| 2026-05-04 04:29 | 44.53157 | -123.37086 | 40850 ft | 505 kts | 177° |
| 2026-05-04 04:29 | 44.46170 | -123.36988 | 40848 ft | 505 kts | 177° |
| 2026-05-04 04:30 | 44.39138 | -123.36889 | 40852 ft | 505 kts | 177° |
| 2026-05-04 04:30 | 44.32102 | -123.36790 | 40856 ft | 506 kts | 177° |
| 2026-05-04 04:31 | 44.25054 | -123.36692 | 40858 ft | 506 kts | 177° |
| 2026-05-04 04:31 | 44.18014 | -123.36593 | 40858 ft | 506 kts | 177° |
| 2026-05-04 04:32 | 44.10971 | -123.36495 | 40859 ft | 506 kts | 177° |
| 2026-05-04 04:32 | 44.03927 | -123.36398 | 40862 ft | 506 kts | 177° |
| 2026-05-04 04:33 | 43.96928 | -123.36301 | 40861 ft | 506 kts | 177° |
| 2026-05-04 04:33 | 43.89886 | -123.36203 | 40868 ft | 506 kts | 177° |
| 2026-05-04 04:34 | 43.82852 | -123.36106 | 40871 ft | 506 kts | 177° |
| 2026-05-04 04:34 | 43.75813 | -123.36009 | 40878 ft | 506 kts | 177° |
| 2026-05-04 04:35 | 43.68777 | -123.35913 | 40879 ft | 506 kts | 177° |
| 2026-05-04 04:35 | 43.61735 | -123.35816 | 40884 ft | 506 kts | 177° |
| 2026-05-04 04:36 | 43.54695 | -123.35720 | 40872 ft | 506 kts | 177° |
| 2026-05-04 04:36 | 43.47660 | -123.35624 | 40871 ft | 506 kts | 177° |
| 2026-05-04 04:37 | 43.33625 | -123.35434 | 40864 ft | 505 kts | 177° |
| 2026-05-04 04:38 | 43.26593 | -123.35339 | 40862 ft | 505 kts | 177° |
| 2026-05-04 04:38 | 43.19576 | -123.35244 | 40860 ft | 504 kts | 177° |
| 2026-05-04 04:39 | 43.12562 | -123.35125 | 40858 ft | 504 kts | 177° |
| 2026-05-04 04:39 | 43.05546 | -123.34975 | 40871 ft | 504 kts | 177° |
| 2026-05-04 04:40 | 42.98541 | -123.34831 | 40873 ft | 503 kts | 177° |
| 2026-05-04 04:40 | 42.91540 | -123.34691 | 40881 ft | 503 kts | 177° |
| 2026-05-04 04:41 | 42.84537 | -123.34551 | 40896 ft | 503 kts | 177° |
| 2026-05-04 04:41 | 42.77546 | -123.34412 | 40889 ft | 502 kts | 177° |
| 2026-05-04 04:42 | 42.70553 | -123.34273 | 40896 ft | 502 kts | 177° |
| 2026-05-04 04:42 | 42.63563 | -123.34135 | 40895 ft | 502 kts | 178° |
| 2026-05-04 04:43 | 42.56584 | -123.33997 | 40889 ft | 501 kts | 178° |
| 2026-05-04 04:43 | 42.49662 | -123.33861 | 40891 ft | 501 kts | 178° |
| 2026-05-04 04:44 | 42.42693 | -123.33724 | 40896 ft | 500 kts | 178° |
| 2026-05-04 04:44 | 42.35750 | -123.33588 | 40903 ft | 499 kts | 178° |
| 2026-05-04 04:45 | 42.28809 | -123.33452 | 40898 ft | 498 kts | 178° |
| 2026-05-04 04:47 | 42.04592 | -123.32981 | 40914 ft | 496 kts | 177° |
| 2026-05-04 04:47 | 41.97691 | -123.32847 | 40922 ft | 495 kts | 178° |
| 2026-05-04 04:48 | 41.90813 | -123.32714 | 40923 ft | 494 kts | 178° |
| 2026-05-04 04:49 | 41.73669 | -123.32385 | 40927 ft | 493 kts | 178° |
| 2026-05-04 04:49 | 41.66816 | -123.32253 | 40920 ft | 493 kts | 178° |
| 2026-05-04 04:50 | 41.59964 | -123.32122 | 40935 ft | 492 kts | 178° |
| 2026-05-04 04:50 | 41.53105 | -123.31991 | 40926 ft | 493 kts | 178° |
| 2026-05-04 04:51 | 41.46249 | -123.31859 | 40936 ft | 493 kts | 178° |
| 2026-05-04 04:51 | 41.39389 | -123.31729 | 40956 ft | 493 kts | 178° |
| 2026-05-04 04:52 | 41.32525 | -123.31597 | 40963 ft | 493 kts | 178° |
| 2026-05-04 04:52 | 41.25710 | -123.31468 | 40977 ft | 493 kts | 178° |
| 2026-05-04 04:53 | 41.18833 | -123.31339 | 40985 ft | 494 kts | 178° |
| 2026-05-04 04:53 | 41.11950 | -123.31210 | 40977 ft | 494 kts | 178° |
| 2026-05-04 04:54 | 41.05062 | -123.31080 | 40977 ft | 494 kts | 178° |
| 2026-05-04 04:54 | 40.98185 | -123.30951 | 40972 ft | 495 kts | 178° |
| 2026-05-04 04:55 | 40.91302 | -123.30822 | 40961 ft | 495 kts | 178° |
| 2026-05-04 04:55 | 40.84459 | -123.30694 | 40951 ft | 495 kts | 178° |
| 2026-05-04 04:56 | 40.77558 | -123.30565 | 40941 ft | 495 kts | 178° |
| 2026-05-04 04:56 | 40.70663 | -123.30437 | 40937 ft | 495 kts | 178° |
| 2026-05-04 04:57 | 40.63771 | -123.30309 | 40926 ft | 495 kts | 178° |
| 2026-05-04 04:57 | 40.56864 | -123.30180 | 40937 ft | 496 kts | 179° |
| 2026-05-04 04:58 | 40.49999 | -123.30054 | 40942 ft | 497 kts | 179° |
| 2026-05-04 04:58 | 40.43097 | -123.29925 | 40935 ft | 496 kts | 179° |
| 2026-05-04 04:59 | 40.36227 | -123.29799 | 40946 ft | 492 kts | 179° |
| 2026-05-04 04:59 | 40.29382 | -123.29673 | 40947 ft | 492 kts | 179° |
| 2026-05-04 05:00 | 40.22548 | -123.29547 | 40949 ft | 490 kts | 179° |
| 2026-05-04 05:01 | 40.12336 | -123.29360 | 40956 ft | 488 kts | 179° |
| 2026-05-04 05:01 | 40.05539 | -123.29237 | 40950 ft | 488 kts | 179° |
| 2026-05-04 05:02 | 39.98750 | -123.29113 | 40962 ft | 487 kts | 179° |
| 2026-05-04 05:02 | 39.92006 | -123.28990 | 40951 ft | 487 kts | 179° |
| 2026-05-04 05:03 | 39.85232 | -123.28868 | 40964 ft | 488 kts | 179° |
| 2026-05-04 05:04 | 39.71620 | -123.28621 | 40974 ft | 489 kts | 179° |
| 2026-05-04 05:04 | 39.64887 | -123.28499 | 40977 ft | 489 kts | 179° |
| 2026-05-04 05:06 | 39.42328 | -123.28093 | 38972 ft | 486 kts | 179° |
| 2026-05-04 05:06 | 39.38939 | -123.28034 | 37754 ft | 489 kts | 178° |
| 2026-05-04 05:06 | 39.35521 | -123.27973 | 36882 ft | 492 kts | 177° |
| 2026-05-04 05:07 | 39.32104 | -123.27913 | 36189 ft | 490 kts | 176° |
| 2026-05-04 05:07 | 39.28690 | -123.27852 | 35466 ft | 490 kts | 176° |
| 2026-05-04 05:07 | 39.25274 | -123.27792 | 34709 ft | 491 kts | 175° |
| 2026-05-04 05:09 | 38.98208 | -123.24468 | 27528 ft | 478 kts | 156° |
| 2026-05-04 05:09 | 38.95072 | -123.23131 | 26875 ft | 473 kts | 156° |
| 2026-05-04 05:10 | 38.91961 | -123.21809 | 26174 ft | 468 kts | 156° |
| 2026-05-04 05:10 | 38.88881 | -123.20503 | 25499 ft | 463 kts | 156° |
| 2026-05-04 05:10 | 38.85833 | -123.19213 | 24827 ft | 459 kts | 156° |
| 2026-05-04 05:10 | 38.82846 | -123.17954 | 24182 ft | 455 kts | 156° |
| 2026-05-04 05:11 | 38.79853 | -123.16695 | 23502 ft | 451 kts | 156° |
| 2026-05-04 05:11 | 38.76888 | -123.15451 | 22775 ft | 446 kts | 156° |
| 2026-05-04 05:11 | 38.73960 | -123.14218 | 22113 ft | 439 kts | 157° |
| 2026-05-04 05:11 | 38.71080 | -123.13010 | 21475 ft | 433 kts | 157° |
| 2026-05-04 05:12 | 38.68234 | -123.11815 | 20834 ft | 428 kts | 158° |
| 2026-05-04 05:12 | 38.65414 | -123.10633 | 20201 ft | 424 kts | 158° |
| 2026-05-04 05:12 | 38.62620 | -123.09462 | 19552 ft | 421 kts | 158° |
| 2026-05-04 05:12 | 38.59848 | -123.08302 | 18910 ft | 417 kts | 159° |
| 2026-05-04 05:13 | 38.57097 | -123.07152 | 18249 ft | 414 kts | 159° |
| 2026-05-04 05:13 | 38.54369 | -123.06015 | 17528 ft | 411 kts | 159° |
| 2026-05-04 05:13 | 38.51664 | -123.04887 | 16854 ft | 406 kts | 159° |
| 2026-05-04 05:13 | 38.48992 | -123.03774 | 16191 ft | 402 kts | 159° |
| 2026-05-04 05:14 | 38.46342 | -123.02670 | 15526 ft | 399 kts | 159° |
| 2026-05-04 05:14 | 38.43710 | -123.01575 | 14877 ft | 395 kts | 160° |
| 2026-05-04 05:14 | 38.41109 | -123.00493 | 14204 ft | 391 kts | 160° |
| 2026-05-04 05:14 | 38.38536 | -122.99424 | 13526 ft | 387 kts | 160° |
| 2026-05-04 05:15 | 38.36019 | -122.98380 | 12847 ft | 382 kts | 160° |
| 2026-05-04 05:15 | 38.33477 | -122.97326 | 12196 ft | 377 kts | 160° |
| 2026-05-04 05:15 | 38.31026 | -122.96310 | 11569 ft | 373 kts | 159° |
| 2026-05-04 05:15 | 38.28571 | -122.95293 | 10922 ft | 369 kts | 159° |
| 2026-05-04 05:16 | 38.26173 | -122.94301 | 10718 ft | 353 kts | 160° |
| 2026-05-04 05:16 | 38.23900 | -122.93362 | 10613 ft | 334 kts | 160° |
| 2026-05-04 05:16 | 38.21740 | -122.92471 | 10514 ft | 317 kts | 159° |
| 2026-05-04 05:16 | 38.19694 | -122.91627 | 10401 ft | 301 kts | 159° |
| 2026-05-04 05:17 | 38.17750 | -122.90825 | 10276 ft | 287 kts | 159° |
| 2026-05-04 05:17 | 38.15885 | -122.90055 | 10155 ft | 276 kts | 159° |
| 2026-05-04 05:17 | 38.14090 | -122.89313 | 10020 ft | 267 kts | 159° |
| 2026-05-04 05:17 | 38.12343 | -122.88593 | 9792 ft | 266 kts | 159° |
| 2026-05-04 05:18 | 38.10532 | -122.87840 | 9566 ft | 278 kts | 159° |
| 2026-05-04 05:18 | 38.08684 | -122.87077 | 9319 ft | 279 kts | 160° |
| 2026-05-04 05:18 | 38.06842 | -122.86314 | 9033 ft | 278 kts | 159° |
| 2026-05-04 05:18 | 38.05009 | -122.85516 | 8987 ft | 279 kts | 159° |
| 2026-05-04 05:19 | 38.03176 | -122.84710 | 8994 ft | 278 kts | 159° |
| 2026-05-04 05:19 | 38.01345 | -122.83906 | 8994 ft | 278 kts | 159° |
| 2026-05-04 05:19 | 37.99518 | -122.83109 | 8984 ft | 278 kts | 159° |
| 2026-05-04 05:19 | 37.97688 | -122.82312 | 8986 ft | 278 kts | 159° |
| 2026-05-04 05:20 | 37.95883 | -122.81528 | 8984 ft | 278 kts | 159° |
| 2026-05-04 05:20 | 37.94052 | -122.80733 | 8987 ft | 278 kts | 159° |
| 2026-05-04 05:20 | 37.92224 | -122.79940 | 8987 ft | 278 kts | 159° |
| 2026-05-04 05:20 | 37.90394 | -122.79146 | 8990 ft | 278 kts | 159° |
| 2026-05-04 05:21 | 37.88565 | -122.78354 | 8992 ft | 278 kts | 159° |
| 2026-05-04 05:21 | 37.86736 | -122.77562 | 8990 ft | 278 kts | 159° |
| 2026-05-04 05:21 | 37.84906 | -122.76770 | 8990 ft | 278 kts | 159° |
| 2026-05-04 05:21 | 37.83117 | -122.75863 | 8988 ft | 277 kts | 150° |
| 2026-05-04 05:22 | 37.81661 | -122.74319 | 8992 ft | 274 kts | 128° |
| 2026-05-04 05:22 | 37.80550 | -122.72369 | 8983 ft | 274 kts | 123° |
| 2026-05-04 05:22 | 37.79500 | -122.70358 | 8988 ft | 274 kts | 123° |
| 2026-05-04 05:22 | 37.78450 | -122.68344 | 8993 ft | 274 kts | 123° |
| 2026-05-04 05:23 | 37.77394 | -122.66336 | 8989 ft | 274 kts | 123° |
| 2026-05-04 05:23 | 37.76348 | -122.64358 | 8993 ft | 274 kts | 123° |
| 2026-05-04 05:23 | 37.75286 | -122.62354 | 8989 ft | 275 kts | 124° |
| 2026-05-04 05:23 | 37.74207 | -122.60323 | 8989 ft | 274 kts | 123° |
| 2026-05-04 05:24 | 37.73144 | -122.58326 | 8994 ft | 272 kts | 123° |
| 2026-05-04 05:24 | 37.72120 | -122.56406 | 8990 ft | 255 kts | 123° |
| 2026-05-04 05:24 | 37.71172 | -122.54631 | 9004 ft | 241 kts | 123° |
| 2026-05-04 05:24 | 37.70239 | -122.52883 | 8993 ft | 239 kts | 123° |
| 2026-05-04 05:25 | 37.69308 | -122.51140 | 8993 ft | 239 kts | 123° |
| 2026-05-04 05:25 | 37.68376 | -122.49396 | 8991 ft | 239 kts | 123° |
| 2026-05-04 05:25 | 37.67446 | -122.47653 | 8994 ft | 239 kts | 123° |
| 2026-05-04 05:25 | 37.66516 | -122.45911 | 8999 ft | 239 kts | 123° |
| 2026-05-04 05:26 | 37.65587 | -122.44168 | 8994 ft | 239 kts | 123° |
| 2026-05-04 05:26 | 37.64662 | -122.42432 | 8994 ft | 236 kts | 123° |
| 2026-05-04 05:26 | 37.63762 | -122.40742 | 9000 ft | 229 kts | 123° |
| 2026-05-04 05:26 | 37.62877 | -122.39072 | 9000 ft | 229 kts | 125° |
| 2026-05-04 05:27 | 37.61776 | -122.37617 | 8998 ft | 230 kts | 140° |
| 2026-05-04 05:28 | 37.52913 | -122.29172 | 7696 ft | 223 kts | 143° |
| 2026-05-04 05:29 | 37.51686 | -122.27993 | 7422 ft | 220 kts | 142° |
| 2026-05-04 05:29 | 37.50468 | -122.26828 | 7173 ft | 219 kts | 143° |
| 2026-05-04 05:29 | 37.49258 | -122.25668 | 6927 ft | 217 kts | 143° |
| 2026-05-04 05:29 | 37.48063 | -122.24517 | 6744 ft | 216 kts | 143° |
| 2026-05-04 05:31 | 37.45648 | -122.15081 | 5787 ft | 226 kts | 17° |
| 2026-05-04 05:31 | 37.47192 | -122.14683 | 5548 ft | 226 kts | 10° |
| 2026-05-04 05:32 | 37.48755 | -122.14532 | 5316 ft | 224 kts | 356° |
| 2026-05-04 05:32 | 37.50237 | -122.15034 | 5102 ft | 218 kts | 335° |
| 2026-05-04 05:32 | 37.51586 | -122.15809 | 4969 ft | 209 kts | 331° |
| 2026-05-04 05:33 | 37.53791 | -122.17980 | 4597 ft | 193 kts | 308° |
| 2026-05-04 05:33 | 37.54487 | -122.19365 | 4420 ft | 182 kts | 294° |
| 2026-05-04 05:33 | 37.55047 | -122.20722 | 4381 ft | 166 kts | 296° |
| 2026-05-04 05:33 | 37.55580 | -122.21984 | 4145 ft | 163 kts | 295° |
| 2026-05-04 05:34 | 37.56128 | -122.23285 | 3734 ft | 169 kts | 295° |
| 2026-05-04 05:34 | 37.56498 | -122.24589 | 3700 ft | 151 kts | 271° |
| 2026-05-04 05:34 | 37.56285 | -122.25833 | 3704 ft | 146 kts | 236° |
| 2026-05-04 05:34 | 37.55571 | -122.26701 | 3594 ft | 145 kts | 206° |
| 2026-05-04 05:35 | 37.54575 | -122.26697 | 3427 ft | 151 kts | 159° |
| 2026-05-04 05:35 | 37.53868 | -122.25717 | 3244 ft | 159 kts | 112° |
| 2026-05-04 05:35 | 37.53907 | -122.24331 | 2885 ft | 164 kts | 66° |
| 2026-05-04 05:35 | 37.54709 | -122.23337 | 2451 ft | 167 kts | 20° |
| 2026-05-04 05:36 | 37.55842 | -122.23303 | 2001 ft | 166 kts | 335° |
| 2026-05-04 05:36 | 37.56641 | -122.24207 | 1818 ft | 147 kts | 296° |
| 2026-05-04 05:36 | 37.57074 | -122.25307 | 1816 ft | 140 kts | 292° |
| 2026-05-04 05:36 | 37.57480 | -122.26430 | 1727 ft | 141 kts | 289° |
| 2026-05-04 05:37 | 37.57937 | -122.27534 | 1528 ft | 142 kts | 296° |
| 2026-05-04 05:37 | 37.58399 | -122.28634 | 1334 ft | 142 kts | 295° |
| 2026-05-04 05:37 | 37.58850 | -122.29720 | 1116 ft | 136 kts | 295° |
| 2026-05-04 05:38 | 37.59703 | -122.31731 | 736 ft | 128 kts | 295° |
| 2026-05-04 05:38 | 37.60132 | -122.32722 | 596 ft | 129 kts | 294° |
| 2026-05-04 05:38 | 37.60546 | -122.33736 | 454 ft | 130 kts | 292° |
| 2026-05-04 05:38 | 37.60955 | -122.34760 | 304 ft | 130 kts | 294° |
| 2026-05-04 05:39 | 37.61386 | -122.35765 | 115 ft | 131 kts | 295° |
| 2026-05-04 05:39 | 37.62143 | -122.37599 | 31 ft | 88 kts | 297° |
| 2026-05-04 05:39 | 37.62375 | -122.38144 | 27 ft | 53 kts | 298° |
| 2026-05-04 05:40 | 37.62502 | -122.38662 | 25 ft | 21 kts | 268° |
| 2026-05-04 05:40 | 37.62492 | -122.38809 | 26 ft | 13 kts | 256° |
| 2026-05-04 05:40 | 37.62444 | -122.38884 | 28 ft | 10 kts | 207° |
| 2026-05-04 05:41 | 37.62383 | -122.38921 | 26 ft | 10 kts | 200° |
| 2026-05-04 05:41 | 37.62335 | -122.38900 | 26 ft | 6 kts | 130° |
| 2026-05-04 05:41 | 37.62309 | -122.38842 | 26 ft | 10 kts | 118° |
| 2026-05-04 05:41 | 37.62270 | -122.38751 | 26 ft | 14 kts | 118° |
| 2026-05-04 05:42 | 37.62221 | -122.38638 | 26 ft | 15 kts | 119° |
| 2026-05-04 05:42 | 37.62174 | -122.38528 | 27 ft | 13 kts | 118° |
| 2026-05-04 05:42 | 37.62134 | -122.38433 | 27 ft | 12 kts | 118° |
| 2026-05-04 05:42 | 37.62101 | -122.38352 | 28 ft | 9 kts | 117° |
| 2026-05-04 05:43 | 37.62073 | -122.38282 | 30 ft | 9 kts | 117° |
| 2026-05-04 05:43 | 37.62034 | -122.38189 | 29 ft | 15 kts | 118° |
| 2026-05-04 05:43 | 37.61976 | -122.38055 | 28 ft | 20 kts | 118° |
| 2026-05-04 05:45 | 37.61172 | -122.38200 | 26 ft | 16 kts | 207° |
| 2026-05-04 05:45 | 37.61077 | -122.38262 | 27 ft | 15 kts | 207° |
| 2026-05-04 05:47 | 37.61014 | -122.38850 | 26 ft | 11 kts | 308° |
| 2026-05-04 05:47 | 37.61069 | -122.38885 | 29 ft | 8 kts | 359° |
| 2026-05-04 05:47 | 37.61125 | -122.38863 | 29 ft | 9 kts | 28° |
| 2026-05-04 05:48 | 37.61175 | -122.38833 | 28 ft | 6 kts | 9° |
| 2026-05-04 05:48 | 37.61195 | -122.38842 | 30 ft | 1 kts | 324° |
| 2026-05-04 05:48 | 37.61204 | -122.38854 | 30 ft | 2 kts | 312° |
| 2026-05-04 05:48 | 37.61211 | -122.38866 | 25 ft | 3 kts | 308° |
| 2026-05-04 05:49 | 37.61221 | -122.38888 | 27 ft | 1 kts | 297° |
| 2026-05-04 05:49 | 37.61225 | -122.38898 | 26 ft | 1 kts | 297° |